<?xml version="1.0" encoding="UTF-8" standalone="no" ?>
<gpx xmlns="http://www.topografix.com/GPX/1/1" xmlns:xsi="http://www.w3.org/2001/XMLSchema-instance" xsi:schemaLocation="http://www.topografix.com/GPX/1/1 http://www.topografix.com/GPX/1/1/gpx.xsd" version="1.1" creator="VisuGPX - https://www.visugpx.com">
  <metadata>
    <name>2024-10-07-46-labastide du vert</name>
    <desc><![CDATA[Randonnée de 10 km pour environ 300m de dénivelé positif. Deux belles côtes pour ce circuit essentiellement sur de beaux chemins en sous bois. De très belles propriétés se dévoilent dans le village de Labastide du vert et le hameau de Sals, à voir aussi vers l'arrivée sur les hauteurs de la colline en face les cyprès du jardin du domaine de Marquayrol et l'atelier d'Henry Martin avec ses deux grandes fenêtres en arrondi]]></desc>
  </metadata>
  <trk>
    <name><![CDATA[LABASTIDE MONTAPATTES]]></name>
    <trkseg>
      <trkpt lat="44.51287" lon="1.26429">
        <ele>125.11</ele>
        <time>2024-10-02T11:31:27Z</time>
      </trkpt>
      <trkpt lat="44.51286" lon="1.26432">
        <ele>125.11</ele>
        <time>2024-10-02T11:31:29Z</time>
      </trkpt>
      <trkpt lat="44.51287" lon="1.26434">
        <ele>122.22</ele>
        <time>2024-10-02T11:31:54Z</time>
      </trkpt>
      <trkpt lat="44.51286" lon="1.26434">
        <ele>122.22</ele>
        <time>2024-10-02T11:32:10Z</time>
      </trkpt>
      <trkpt lat="44.5128" lon="1.26431">
        <ele>122.22</ele>
        <time>2024-10-02T11:32:24Z</time>
      </trkpt>
      <trkpt lat="44.51282" lon="1.26431">
        <ele>122.22</ele>
        <time>2024-10-02T11:32:42Z</time>
      </trkpt>
      <trkpt lat="44.51276" lon="1.26427">
        <ele>122.22</ele>
        <time>2024-10-02T11:32:52Z</time>
      </trkpt>
      <trkpt lat="44.51275" lon="1.26424">
        <ele>122.22</ele>
        <time>2024-10-02T11:32:57Z</time>
      </trkpt>
      <trkpt lat="44.51264" lon="1.26428">
        <ele>122.22</ele>
        <time>2024-10-02T11:33:07Z</time>
      </trkpt>
      <trkpt lat="44.51261" lon="1.26428">
        <ele>123.67</ele>
        <time>2024-10-02T11:33:10Z</time>
      </trkpt>
      <trkpt lat="44.51251" lon="1.26431">
        <ele>125.11</ele>
        <time>2024-10-02T11:33:23Z</time>
      </trkpt>
      <trkpt lat="44.51244" lon="1.26431">
        <ele>125.11</ele>
        <time>2024-10-02T11:33:30Z</time>
      </trkpt>
      <trkpt lat="44.51239" lon="1.26409">
        <ele>126.07</ele>
        <time>2024-10-02T11:33:52Z</time>
      </trkpt>
      <trkpt lat="44.51238" lon="1.26406">
        <ele>124.63</ele>
        <time>2024-10-02T11:33:55Z</time>
      </trkpt>
      <trkpt lat="44.51236" lon="1.264">
        <ele>126.07</ele>
        <time>2024-10-02T11:34:03Z</time>
      </trkpt>
      <trkpt lat="44.51234" lon="1.26393">
        <ele>124.15</ele>
        <time>2024-10-02T11:34:09Z</time>
      </trkpt>
      <trkpt lat="44.51228" lon="1.26375">
        <ele>124.15</ele>
        <time>2024-10-02T11:34:23Z</time>
      </trkpt>
      <trkpt lat="44.51224" lon="1.26353">
        <ele>124.15</ele>
        <time>2024-10-02T11:34:37Z</time>
      </trkpt>
      <trkpt lat="44.51216" lon="1.26315">
        <ele>124.15</ele>
        <time>2024-10-02T11:34:55Z</time>
      </trkpt>
      <trkpt lat="44.5121" lon="1.2629">
        <ele>125.59</ele>
        <time>2024-10-02T11:35:09Z</time>
      </trkpt>
      <trkpt lat="44.51208" lon="1.26288">
        <ele>125.59</ele>
        <time>2024-10-02T11:35:11Z</time>
      </trkpt>
      <trkpt lat="44.51213" lon="1.26281">
        <ele>125.59</ele>
        <time>2024-10-02T11:35:15Z</time>
      </trkpt>
      <trkpt lat="44.5122" lon="1.26267">
        <ele>124.15</ele>
        <time>2024-10-02T11:35:22Z</time>
      </trkpt>
      <trkpt lat="44.51223" lon="1.26264">
        <ele>124.15</ele>
        <time>2024-10-02T11:35:26Z</time>
      </trkpt>
      <trkpt lat="44.51233" lon="1.26241">
        <ele>123.67</ele>
        <time>2024-10-02T11:35:42Z</time>
      </trkpt>
      <trkpt lat="44.51236" lon="1.26234">
        <ele>124.63</ele>
        <time>2024-10-02T11:35:49Z</time>
      </trkpt>
      <trkpt lat="44.51237" lon="1.26229">
        <ele>123.67</ele>
        <time>2024-10-02T11:35:53Z</time>
      </trkpt>
      <trkpt lat="44.51238" lon="1.26223">
        <ele>124.63</ele>
        <time>2024-10-02T11:35:56Z</time>
      </trkpt>
      <trkpt lat="44.51239" lon="1.26217">
        <ele>123.67</ele>
        <time>2024-10-02T11:36:01Z</time>
      </trkpt>
      <trkpt lat="44.51242" lon="1.26199">
        <ele>123.19</ele>
        <time>2024-10-02T11:36:13Z</time>
      </trkpt>
      <trkpt lat="44.51245" lon="1.2616">
        <ele>122.71</ele>
        <time>2024-10-02T11:36:32Z</time>
      </trkpt>
      <trkpt lat="44.51251" lon="1.26129">
        <ele>122.71</ele>
        <time>2024-10-02T11:36:50Z</time>
      </trkpt>
      <trkpt lat="44.51255" lon="1.26114">
        <ele>122.71</ele>
        <time>2024-10-02T11:37:00Z</time>
      </trkpt>
      <trkpt lat="44.5126" lon="1.26107">
        <ele>122.22</ele>
        <time>2024-10-02T11:37:05Z</time>
      </trkpt>
      <trkpt lat="44.51273" lon="1.26099">
        <ele>122.22</ele>
        <time>2024-10-02T11:37:21Z</time>
      </trkpt>
      <trkpt lat="44.51283" lon="1.26082">
        <ele>122.22</ele>
        <time>2024-10-02T11:37:35Z</time>
      </trkpt>
      <trkpt lat="44.51287" lon="1.26076">
        <ele>122.22</ele>
        <time>2024-10-02T11:37:40Z</time>
      </trkpt>
      <trkpt lat="44.51298" lon="1.26063">
        <ele>121.74</ele>
        <time>2024-10-02T11:37:53Z</time>
      </trkpt>
      <trkpt lat="44.51304" lon="1.26059">
        <ele>121.74</ele>
        <time>2024-10-02T11:37:58Z</time>
      </trkpt>
      <trkpt lat="44.51318" lon="1.26056">
        <ele>121.74</ele>
        <time>2024-10-02T11:38:09Z</time>
      </trkpt>
      <trkpt lat="44.51325" lon="1.26059">
        <ele>123.19</ele>
        <time>2024-10-02T11:38:15Z</time>
      </trkpt>
      <trkpt lat="44.51339" lon="1.26076">
        <ele>124.63</ele>
        <time>2024-10-02T11:38:30Z</time>
      </trkpt>
      <trkpt lat="44.5135" lon="1.26095">
        <ele>126.07</ele>
        <time>2024-10-02T11:38:46Z</time>
      </trkpt>
      <trkpt lat="44.51364" lon="1.26116">
        <ele>127.03</ele>
        <time>2024-10-02T11:39:04Z</time>
      </trkpt>
      <trkpt lat="44.51377" lon="1.26135">
        <ele>127.03</ele>
        <time>2024-10-02T11:39:22Z</time>
      </trkpt>
      <trkpt lat="44.51393" lon="1.26149">
        <ele>127.03</ele>
        <time>2024-10-02T11:39:38Z</time>
      </trkpt>
      <trkpt lat="44.51404" lon="1.26173">
        <ele>127.51</ele>
        <time>2024-10-02T11:39:57Z</time>
      </trkpt>
      <trkpt lat="44.51409" lon="1.26192">
        <ele>127.51</ele>
        <time>2024-10-02T11:40:13Z</time>
      </trkpt>
      <trkpt lat="44.51409" lon="1.26196">
        <ele>127.51</ele>
        <time>2024-10-02T11:40:39Z</time>
      </trkpt>
      <trkpt lat="44.51411" lon="1.26201">
        <ele>127.51</ele>
        <time>2024-10-02T11:40:48Z</time>
      </trkpt>
      <trkpt lat="44.51415" lon="1.26212">
        <ele>127.51</ele>
        <time>2024-10-02T11:41:02Z</time>
      </trkpt>
      <trkpt lat="44.51424" lon="1.26231">
        <ele>127.51</ele>
        <time>2024-10-02T11:41:18Z</time>
      </trkpt>
      <trkpt lat="44.51433" lon="1.26243">
        <ele>129.92</ele>
        <time>2024-10-02T11:41:37Z</time>
      </trkpt>
      <trkpt lat="44.51435" lon="1.26245">
        <ele>129.92</ele>
        <time>2024-10-02T11:41:41Z</time>
      </trkpt>
      <trkpt lat="44.51451" lon="1.26258">
        <ele>131.84</ele>
        <time>2024-10-02T11:41:58Z</time>
      </trkpt>
      <trkpt lat="44.51465" lon="1.26273">
        <ele>133.76</ele>
        <time>2024-10-02T11:42:14Z</time>
      </trkpt>
      <trkpt lat="44.51477" lon="1.26291">
        <ele>135.68</ele>
        <time>2024-10-02T11:42:31Z</time>
      </trkpt>
      <trkpt lat="44.51488" lon="1.26306">
        <ele>136.64</ele>
        <time>2024-10-02T11:42:47Z</time>
      </trkpt>
      <trkpt lat="44.51502" lon="1.26318">
        <ele>136.64</ele>
        <time>2024-10-02T11:43:01Z</time>
      </trkpt>
      <trkpt lat="44.51519" lon="1.26325">
        <ele>137.61</ele>
        <time>2024-10-02T11:43:18Z</time>
      </trkpt>
      <trkpt lat="44.51523" lon="1.26326">
        <ele>137.61</ele>
        <time>2024-10-02T11:43:22Z</time>
      </trkpt>
      <trkpt lat="44.51538" lon="1.26323">
        <ele>137.61</ele>
        <time>2024-10-02T11:43:38Z</time>
      </trkpt>
      <trkpt lat="44.51549" lon="1.26318">
        <ele>138.09</ele>
        <time>2024-10-02T11:43:55Z</time>
      </trkpt>
      <trkpt lat="44.51555" lon="1.26316">
        <ele>138.09</ele>
        <time>2024-10-02T11:44:28Z</time>
      </trkpt>
      <trkpt lat="44.51558" lon="1.26313">
        <ele>138.57</ele>
        <time>2024-10-02T11:44:46Z</time>
      </trkpt>
      <trkpt lat="44.51568" lon="1.26304">
        <ele>139.05</ele>
        <time>2024-10-02T11:44:59Z</time>
      </trkpt>
      <trkpt lat="44.51579" lon="1.26301">
        <ele>139.53</ele>
        <time>2024-10-02T11:45:12Z</time>
      </trkpt>
      <trkpt lat="44.51587" lon="1.26299">
        <ele>140.01</ele>
        <time>2024-10-02T11:45:28Z</time>
      </trkpt>
      <trkpt lat="44.51589" lon="1.26295">
        <ele>140.01</ele>
        <time>2024-10-02T11:45:49Z</time>
      </trkpt>
      <trkpt lat="44.51589" lon="1.26291">
        <ele>140.49</ele>
        <time>2024-10-02T11:46:14Z</time>
      </trkpt>
      <trkpt lat="44.51597" lon="1.26284">
        <ele>140.49</ele>
        <time>2024-10-02T11:46:33Z</time>
      </trkpt>
      <trkpt lat="44.51607" lon="1.26277">
        <ele>140.97</ele>
        <time>2024-10-02T11:46:51Z</time>
      </trkpt>
      <trkpt lat="44.51619" lon="1.26268">
        <ele>141.93</ele>
        <time>2024-10-02T11:47:07Z</time>
      </trkpt>
      <trkpt lat="44.5163" lon="1.2626">
        <ele>142.89</ele>
        <time>2024-10-02T11:47:22Z</time>
      </trkpt>
      <trkpt lat="44.51648" lon="1.26245">
        <ele>144.82</ele>
        <time>2024-10-02T11:47:39Z</time>
      </trkpt>
      <trkpt lat="44.51665" lon="1.26237">
        <ele>147.22</ele>
        <time>2024-10-02T11:47:53Z</time>
      </trkpt>
      <trkpt lat="44.51678" lon="1.26229">
        <ele>149.14</ele>
        <time>2024-10-02T11:48:07Z</time>
      </trkpt>
      <trkpt lat="44.51696" lon="1.26224">
        <ele>151.54</ele>
        <time>2024-10-02T11:48:25Z</time>
      </trkpt>
      <trkpt lat="44.51702" lon="1.26219">
        <ele>152.51</ele>
        <time>2024-10-02T11:48:46Z</time>
      </trkpt>
      <trkpt lat="44.51714" lon="1.2622">
        <ele>153.95</ele>
        <time>2024-10-02T11:48:59Z</time>
      </trkpt>
      <trkpt lat="44.51729" lon="1.26221">
        <ele>155.87</ele>
        <time>2024-10-02T11:49:14Z</time>
      </trkpt>
      <trkpt lat="44.51741" lon="1.26222">
        <ele>157.79</ele>
        <time>2024-10-02T11:49:26Z</time>
      </trkpt>
      <trkpt lat="44.51761" lon="1.26227">
        <ele>160.68</ele>
        <time>2024-10-02T11:49:42Z</time>
      </trkpt>
      <trkpt lat="44.5178" lon="1.26232">
        <ele>162.6</ele>
        <time>2024-10-02T11:50:00Z</time>
      </trkpt>
      <trkpt lat="44.51797" lon="1.26233">
        <ele>164.04</ele>
        <time>2024-10-02T11:50:17Z</time>
      </trkpt>
      <trkpt lat="44.51811" lon="1.26227">
        <ele>165.48</ele>
        <time>2024-10-02T11:50:32Z</time>
      </trkpt>
      <trkpt lat="44.51825" lon="1.26219">
        <ele>165.96</ele>
        <time>2024-10-02T11:50:47Z</time>
      </trkpt>
      <trkpt lat="44.51841" lon="1.26212">
        <ele>166.45</ele>
        <time>2024-10-02T11:51:02Z</time>
      </trkpt>
      <trkpt lat="44.51858" lon="1.26205">
        <ele>166.93</ele>
        <time>2024-10-02T11:51:19Z</time>
      </trkpt>
      <trkpt lat="44.51876" lon="1.26201">
        <ele>168.37</ele>
        <time>2024-10-02T11:51:37Z</time>
      </trkpt>
      <trkpt lat="44.51887" lon="1.26198">
        <ele>169.33</ele>
        <time>2024-10-02T11:51:50Z</time>
      </trkpt>
      <trkpt lat="44.51904" lon="1.26193">
        <ele>171.25</ele>
        <time>2024-10-02T11:52:06Z</time>
      </trkpt>
      <trkpt lat="44.51916" lon="1.26193">
        <ele>171.25</ele>
        <time>2024-10-02T11:52:25Z</time>
      </trkpt>
      <trkpt lat="44.51929" lon="1.26186">
        <ele>173.17</ele>
        <time>2024-10-02T11:52:42Z</time>
      </trkpt>
      <trkpt lat="44.51943" lon="1.26183">
        <ele>175.58</ele>
        <time>2024-10-02T11:53:00Z</time>
      </trkpt>
      <trkpt lat="44.51956" lon="1.26178">
        <ele>177.98</ele>
        <time>2024-10-02T11:53:17Z</time>
      </trkpt>
      <trkpt lat="44.5197" lon="1.26162">
        <ele>179.42</ele>
        <time>2024-10-02T11:53:33Z</time>
      </trkpt>
      <trkpt lat="44.51979" lon="1.26147">
        <ele>181.35</ele>
        <time>2024-10-02T11:53:51Z</time>
      </trkpt>
      <trkpt lat="44.51983" lon="1.26145">
        <ele>181.83</ele>
        <time>2024-10-02T11:54:11Z</time>
      </trkpt>
      <trkpt lat="44.51993" lon="1.26142">
        <ele>184.23</ele>
        <time>2024-10-02T11:54:30Z</time>
      </trkpt>
      <trkpt lat="44.52" lon="1.26143">
        <ele>186.15</ele>
        <time>2024-10-02T11:54:46Z</time>
      </trkpt>
      <trkpt lat="44.5201" lon="1.26147">
        <ele>188.56</ele>
        <time>2024-10-02T11:55:01Z</time>
      </trkpt>
      <trkpt lat="44.5202" lon="1.26155">
        <ele>190.96</ele>
        <time>2024-10-02T11:55:18Z</time>
      </trkpt>
      <trkpt lat="44.52028" lon="1.26162">
        <ele>192.88</ele>
        <time>2024-10-02T11:55:35Z</time>
      </trkpt>
      <trkpt lat="44.52037" lon="1.26171">
        <ele>195.28</ele>
        <time>2024-10-02T11:55:53Z</time>
      </trkpt>
      <trkpt lat="44.52047" lon="1.26183">
        <ele>197.69</ele>
        <time>2024-10-02T11:56:12Z</time>
      </trkpt>
      <trkpt lat="44.52052" lon="1.26187">
        <ele>197.69</ele>
        <time>2024-10-02T11:56:26Z</time>
      </trkpt>
      <trkpt lat="44.52052" lon="1.26187">
        <ele>199.13</ele>
        <time>2024-10-02T11:56:28Z</time>
      </trkpt>
      <trkpt lat="44.52061" lon="1.26195">
        <ele>201.05</ele>
        <time>2024-10-02T11:56:47Z</time>
      </trkpt>
      <trkpt lat="44.52072" lon="1.26199">
        <ele>203.94</ele>
        <time>2024-10-02T11:57:07Z</time>
      </trkpt>
      <trkpt lat="44.52084" lon="1.26202">
        <ele>205.86</ele>
        <time>2024-10-02T11:57:24Z</time>
      </trkpt>
      <trkpt lat="44.52091" lon="1.26204">
        <ele>207.78</ele>
        <time>2024-10-02T11:57:43Z</time>
      </trkpt>
      <trkpt lat="44.52101" lon="1.2621">
        <ele>211.15</ele>
        <time>2024-10-02T11:58:04Z</time>
      </trkpt>
      <trkpt lat="44.52113" lon="1.26217">
        <ele>214.03</ele>
        <time>2024-10-02T11:58:22Z</time>
      </trkpt>
      <trkpt lat="44.52125" lon="1.26218">
        <ele>217.4</ele>
        <time>2024-10-02T11:58:43Z</time>
      </trkpt>
      <trkpt lat="44.52135" lon="1.26217">
        <ele>219.32</ele>
        <time>2024-10-02T11:59:00Z</time>
      </trkpt>
      <trkpt lat="44.52143" lon="1.26222">
        <ele>222.2</ele>
        <time>2024-10-02T11:59:17Z</time>
      </trkpt>
      <trkpt lat="44.52151" lon="1.26225">
        <ele>225.09</ele>
        <time>2024-10-02T11:59:32Z</time>
      </trkpt>
      <trkpt lat="44.52159" lon="1.26229">
        <ele>227.01</ele>
        <time>2024-10-02T11:59:48Z</time>
      </trkpt>
      <trkpt lat="44.52175" lon="1.26235">
        <ele>229.89</ele>
        <time>2024-10-02T12:00:08Z</time>
      </trkpt>
      <trkpt lat="44.52179" lon="1.26239">
        <ele>230.85</ele>
        <time>2024-10-02T12:00:23Z</time>
      </trkpt>
      <trkpt lat="44.52193" lon="1.26246">
        <ele>233.74</ele>
        <time>2024-10-02T12:00:41Z</time>
      </trkpt>
      <trkpt lat="44.52203" lon="1.26252">
        <ele>235.18</ele>
        <time>2024-10-02T12:00:57Z</time>
      </trkpt>
      <trkpt lat="44.52215" lon="1.2626">
        <ele>237.1</ele>
        <time>2024-10-02T12:01:14Z</time>
      </trkpt>
      <trkpt lat="44.52224" lon="1.26265">
        <ele>239.51</ele>
        <time>2024-10-02T12:01:29Z</time>
      </trkpt>
      <trkpt lat="44.52224" lon="1.26264">
        <ele>236.14</ele>
        <time>2024-10-02T12:01:30Z</time>
      </trkpt>
      <trkpt lat="44.52224" lon="1.26264">
        <ele>236.14</ele>
        <time>2024-10-02T12:01:31Z</time>
      </trkpt>
      <trkpt lat="44.52225" lon="1.26264">
        <ele>239.51</ele>
        <time>2024-10-02T12:01:37Z</time>
      </trkpt>
      <trkpt lat="44.5223" lon="1.2626">
        <ele>237.58</ele>
        <time>2024-10-02T12:01:58Z</time>
      </trkpt>
      <trkpt lat="44.52231" lon="1.26266">
        <ele>237.58</ele>
        <time>2024-10-02T12:02:11Z</time>
      </trkpt>
      <trkpt lat="44.52237" lon="1.26272">
        <ele>239.02</ele>
        <time>2024-10-02T12:02:25Z</time>
      </trkpt>
      <trkpt lat="44.52242" lon="1.26277">
        <ele>239.51</ele>
        <time>2024-10-02T12:02:42Z</time>
      </trkpt>
      <trkpt lat="44.52243" lon="1.26278">
        <ele>239.99</ele>
        <time>2024-10-02T12:02:56Z</time>
      </trkpt>
      <trkpt lat="44.52248" lon="1.26284">
        <ele>240.47</ele>
        <time>2024-10-02T12:03:11Z</time>
      </trkpt>
      <trkpt lat="44.52249" lon="1.26285">
        <ele>240.95</ele>
        <time>2024-10-02T12:03:41Z</time>
      </trkpt>
      <trkpt lat="44.5226" lon="1.26294">
        <ele>240.95</ele>
        <time>2024-10-02T12:03:56Z</time>
      </trkpt>
      <trkpt lat="44.52266" lon="1.26301">
        <ele>240.95</ele>
        <time>2024-10-02T12:04:12Z</time>
      </trkpt>
      <trkpt lat="44.52276" lon="1.26305">
        <ele>240.95</ele>
        <time>2024-10-02T12:04:27Z</time>
      </trkpt>
      <trkpt lat="44.5228" lon="1.26309">
        <ele>240.95</ele>
        <time>2024-10-02T12:04:43Z</time>
      </trkpt>
      <trkpt lat="44.52284" lon="1.26312">
        <ele>241.43</ele>
        <time>2024-10-02T12:05:01Z</time>
      </trkpt>
      <trkpt lat="44.52289" lon="1.26314">
        <ele>241.43</ele>
        <time>2024-10-02T12:05:06Z</time>
      </trkpt>
      <trkpt lat="44.52303" lon="1.26325">
        <ele>241.43</ele>
        <time>2024-10-02T12:05:19Z</time>
      </trkpt>
      <trkpt lat="44.52319" lon="1.26328">
        <ele>241.91</ele>
        <time>2024-10-02T12:05:36Z</time>
      </trkpt>
      <trkpt lat="44.52321" lon="1.26328">
        <ele>241.91</ele>
        <time>2024-10-02T12:05:38Z</time>
      </trkpt>
      <trkpt lat="44.52324" lon="1.26328">
        <ele>241.91</ele>
        <time>2024-10-02T12:05:40Z</time>
      </trkpt>
      <trkpt lat="44.52338" lon="1.26326">
        <ele>242.39</ele>
        <time>2024-10-02T12:05:54Z</time>
      </trkpt>
      <trkpt lat="44.52351" lon="1.26327">
        <ele>243.35</ele>
        <time>2024-10-02T12:06:08Z</time>
      </trkpt>
      <trkpt lat="44.52362" lon="1.2633">
        <ele>243.83</ele>
        <time>2024-10-02T12:06:21Z</time>
      </trkpt>
      <trkpt lat="44.52365" lon="1.2633">
        <ele>244.31</ele>
        <time>2024-10-02T12:06:24Z</time>
      </trkpt>
      <trkpt lat="44.52378" lon="1.26334">
        <ele>245.75</ele>
        <time>2024-10-02T12:06:38Z</time>
      </trkpt>
      <trkpt lat="44.52382" lon="1.26335">
        <ele>245.75</ele>
        <time>2024-10-02T12:06:46Z</time>
      </trkpt>
      <trkpt lat="44.52388" lon="1.26334">
        <ele>246.23</ele>
        <time>2024-10-02T12:06:53Z</time>
      </trkpt>
      <trkpt lat="44.52396" lon="1.26335">
        <ele>247.68</ele>
        <time>2024-10-02T12:07:05Z</time>
      </trkpt>
      <trkpt lat="44.52398" lon="1.26335">
        <ele>247.68</ele>
        <time>2024-10-02T12:07:08Z</time>
      </trkpt>
      <trkpt lat="44.52406" lon="1.26335">
        <ele>249.12</ele>
        <time>2024-10-02T12:07:19Z</time>
      </trkpt>
      <trkpt lat="44.52416" lon="1.26336">
        <ele>250.08</ele>
        <time>2024-10-02T12:07:29Z</time>
      </trkpt>
      <trkpt lat="44.52426" lon="1.26339">
        <ele>252</ele>
        <time>2024-10-02T12:07:41Z</time>
      </trkpt>
      <trkpt lat="44.52437" lon="1.26338">
        <ele>252.96</ele>
        <time>2024-10-02T12:07:51Z</time>
      </trkpt>
      <trkpt lat="44.52447" lon="1.26339">
        <ele>253.93</ele>
        <time>2024-10-02T12:08:05Z</time>
      </trkpt>
      <trkpt lat="44.52459" lon="1.26333">
        <ele>255.37</ele>
        <time>2024-10-02T12:08:20Z</time>
      </trkpt>
      <trkpt lat="44.52465" lon="1.2633">
        <ele>255.85</ele>
        <time>2024-10-02T12:08:27Z</time>
      </trkpt>
      <trkpt lat="44.52482" lon="1.26326">
        <ele>257.29</ele>
        <time>2024-10-02T12:08:45Z</time>
      </trkpt>
      <trkpt lat="44.52496" lon="1.26325">
        <ele>257.77</ele>
        <time>2024-10-02T12:08:59Z</time>
      </trkpt>
      <trkpt lat="44.52512" lon="1.26327">
        <ele>258.73</ele>
        <time>2024-10-02T12:09:15Z</time>
      </trkpt>
      <trkpt lat="44.52526" lon="1.26328">
        <ele>259.21</ele>
        <time>2024-10-02T12:09:30Z</time>
      </trkpt>
      <trkpt lat="44.52539" lon="1.26329">
        <ele>259.69</ele>
        <time>2024-10-02T12:09:43Z</time>
      </trkpt>
      <trkpt lat="44.52541" lon="1.26328">
        <ele>259.69</ele>
        <time>2024-10-02T12:09:46Z</time>
      </trkpt>
      <trkpt lat="44.52551" lon="1.26325">
        <ele>260.17</ele>
        <time>2024-10-02T12:09:56Z</time>
      </trkpt>
      <trkpt lat="44.52554" lon="1.26325">
        <ele>260.17</ele>
        <time>2024-10-02T12:09:58Z</time>
      </trkpt>
      <trkpt lat="44.52563" lon="1.26319">
        <ele>260.17</ele>
        <time>2024-10-02T12:10:09Z</time>
      </trkpt>
      <trkpt lat="44.52565" lon="1.26315">
        <ele>261.14</ele>
        <time>2024-10-02T12:10:24Z</time>
      </trkpt>
      <trkpt lat="44.52563" lon="1.26311">
        <ele>261.14</ele>
        <time>2024-10-02T12:10:47Z</time>
      </trkpt>
      <trkpt lat="44.52568" lon="1.2632">
        <ele>261.14</ele>
        <time>2024-10-02T12:11:06Z</time>
      </trkpt>
      <trkpt lat="44.52572" lon="1.26321">
        <ele>261.14</ele>
        <time>2024-10-02T12:11:36Z</time>
      </trkpt>
      <trkpt lat="44.52568" lon="1.26315">
        <ele>261.14</ele>
        <time>2024-10-02T12:11:51Z</time>
      </trkpt>
      <trkpt lat="44.52567" lon="1.26307">
        <ele>261.14</ele>
        <time>2024-10-02T12:12:14Z</time>
      </trkpt>
      <trkpt lat="44.52573" lon="1.26291">
        <ele>261.14</ele>
        <time>2024-10-02T12:12:31Z</time>
      </trkpt>
      <trkpt lat="44.52579" lon="1.26281">
        <ele>261.14</ele>
        <time>2024-10-02T12:12:42Z</time>
      </trkpt>
      <trkpt lat="44.52588" lon="1.26264">
        <ele>261.14</ele>
        <time>2024-10-02T12:12:57Z</time>
      </trkpt>
      <trkpt lat="44.52598" lon="1.26243">
        <ele>259.21</ele>
        <time>2024-10-02T12:13:12Z</time>
      </trkpt>
      <trkpt lat="44.52606" lon="1.26225">
        <ele>258.73</ele>
        <time>2024-10-02T12:13:28Z</time>
      </trkpt>
      <trkpt lat="44.52614" lon="1.26204">
        <ele>257.77</ele>
        <time>2024-10-02T12:13:44Z</time>
      </trkpt>
      <trkpt lat="44.52622" lon="1.26183">
        <ele>256.81</ele>
        <time>2024-10-02T12:14:00Z</time>
      </trkpt>
      <trkpt lat="44.52629" lon="1.26156">
        <ele>256.33</ele>
        <time>2024-10-02T12:14:16Z</time>
      </trkpt>
      <trkpt lat="44.5263" lon="1.26151">
        <ele>255.85</ele>
        <time>2024-10-02T12:14:19Z</time>
      </trkpt>
      <trkpt lat="44.52631" lon="1.26145">
        <ele>255.85</ele>
        <time>2024-10-02T12:14:23Z</time>
      </trkpt>
      <trkpt lat="44.52634" lon="1.26121">
        <ele>254.89</ele>
        <time>2024-10-02T12:14:38Z</time>
      </trkpt>
      <trkpt lat="44.52638" lon="1.26104">
        <ele>254.41</ele>
        <time>2024-10-02T12:14:49Z</time>
      </trkpt>
      <trkpt lat="44.5264" lon="1.26083">
        <ele>253.93</ele>
        <time>2024-10-02T12:15:04Z</time>
      </trkpt>
      <trkpt lat="44.52644" lon="1.26058">
        <ele>253.93</ele>
        <time>2024-10-02T12:15:20Z</time>
      </trkpt>
      <trkpt lat="44.52647" lon="1.26039">
        <ele>253.44</ele>
        <time>2024-10-02T12:15:34Z</time>
      </trkpt>
      <trkpt lat="44.52647" lon="1.26036">
        <ele>253.44</ele>
        <time>2024-10-02T12:15:37Z</time>
      </trkpt>
      <trkpt lat="44.52649" lon="1.26017">
        <ele>252.48</ele>
        <time>2024-10-02T12:15:51Z</time>
      </trkpt>
      <trkpt lat="44.52653" lon="1.25998">
        <ele>252</ele>
        <time>2024-10-02T12:16:05Z</time>
      </trkpt>
      <trkpt lat="44.52659" lon="1.25966">
        <ele>250.56</ele>
        <time>2024-10-02T12:16:23Z</time>
      </trkpt>
      <trkpt lat="44.52658" lon="1.25944">
        <ele>249.12</ele>
        <time>2024-10-02T12:16:38Z</time>
      </trkpt>
      <trkpt lat="44.52656" lon="1.25926">
        <ele>247.68</ele>
        <time>2024-10-02T12:16:54Z</time>
      </trkpt>
      <trkpt lat="44.52658" lon="1.25902">
        <ele>245.27</ele>
        <time>2024-10-02T12:17:12Z</time>
      </trkpt>
      <trkpt lat="44.52658" lon="1.2589">
        <ele>243.35</ele>
        <time>2024-10-02T12:17:30Z</time>
      </trkpt>
      <trkpt lat="44.5266" lon="1.25888">
        <ele>243.83</ele>
        <time>2024-10-02T12:17:36Z</time>
      </trkpt>
      <trkpt lat="44.52664" lon="1.25888">
        <ele>243.83</ele>
        <time>2024-10-02T12:17:54Z</time>
      </trkpt>
      <trkpt lat="44.52667" lon="1.25891">
        <ele>245.75</ele>
        <time>2024-10-02T12:18:01Z</time>
      </trkpt>
      <trkpt lat="44.52674" lon="1.25897">
        <ele>245.75</ele>
        <time>2024-10-02T12:18:09Z</time>
      </trkpt>
      <trkpt lat="44.52689" lon="1.2591">
        <ele>246.72</ele>
        <time>2024-10-02T12:18:27Z</time>
      </trkpt>
      <trkpt lat="44.52702" lon="1.25933">
        <ele>245.27</ele>
        <time>2024-10-02T12:18:45Z</time>
      </trkpt>
      <trkpt lat="44.52704" lon="1.25935">
        <ele>244.79</ele>
        <time>2024-10-02T12:18:48Z</time>
      </trkpt>
      <trkpt lat="44.52706" lon="1.25932">
        <ele>244.79</ele>
        <time>2024-10-02T12:18:52Z</time>
      </trkpt>
      <trkpt lat="44.52707" lon="1.25908">
        <ele>244.31</ele>
        <time>2024-10-02T12:19:10Z</time>
      </trkpt>
      <trkpt lat="44.52707" lon="1.25904">
        <ele>243.83</ele>
        <time>2024-10-02T12:19:13Z</time>
      </trkpt>
      <trkpt lat="44.52708" lon="1.25873">
        <ele>242.87</ele>
        <time>2024-10-02T12:19:31Z</time>
      </trkpt>
      <trkpt lat="44.52709" lon="1.25846">
        <ele>241.91</ele>
        <time>2024-10-02T12:19:46Z</time>
      </trkpt>
      <trkpt lat="44.52708" lon="1.25822">
        <ele>240.95</ele>
        <time>2024-10-02T12:20:01Z</time>
      </trkpt>
      <trkpt lat="44.52706" lon="1.25794">
        <ele>239.51</ele>
        <time>2024-10-02T12:20:18Z</time>
      </trkpt>
      <trkpt lat="44.52705" lon="1.25783">
        <ele>239.02</ele>
        <time>2024-10-02T12:20:25Z</time>
      </trkpt>
      <trkpt lat="44.52699" lon="1.25753">
        <ele>237.58</ele>
        <time>2024-10-02T12:20:42Z</time>
      </trkpt>
      <trkpt lat="44.52693" lon="1.25728">
        <ele>236.62</ele>
        <time>2024-10-02T12:20:56Z</time>
      </trkpt>
      <trkpt lat="44.52693" lon="1.25704">
        <ele>235.66</ele>
        <time>2024-10-02T12:21:11Z</time>
      </trkpt>
      <trkpt lat="44.52698" lon="1.25678">
        <ele>233.74</ele>
        <time>2024-10-02T12:21:27Z</time>
      </trkpt>
      <trkpt lat="44.527" lon="1.25666">
        <ele>233.74</ele>
        <time>2024-10-02T12:21:34Z</time>
      </trkpt>
      <trkpt lat="44.52716" lon="1.25633">
        <ele>231.81</ele>
        <time>2024-10-02T12:21:52Z</time>
      </trkpt>
      <trkpt lat="44.52726" lon="1.25614">
        <ele>231.33</ele>
        <time>2024-10-02T12:22:06Z</time>
      </trkpt>
      <trkpt lat="44.52729" lon="1.25599">
        <ele>230.37</ele>
        <time>2024-10-02T12:22:17Z</time>
      </trkpt>
      <trkpt lat="44.5273" lon="1.25569">
        <ele>229.41</ele>
        <time>2024-10-02T12:22:35Z</time>
      </trkpt>
      <trkpt lat="44.52727" lon="1.25555">
        <ele>228.45</ele>
        <time>2024-10-02T12:22:43Z</time>
      </trkpt>
      <trkpt lat="44.52719" lon="1.25539">
        <ele>227.01</ele>
        <time>2024-10-02T12:22:57Z</time>
      </trkpt>
      <trkpt lat="44.52715" lon="1.25533">
        <ele>227.01</ele>
        <time>2024-10-02T12:23:04Z</time>
      </trkpt>
      <trkpt lat="44.52698" lon="1.2552">
        <ele>225.57</ele>
        <time>2024-10-02T12:23:14Z</time>
      </trkpt>
      <trkpt lat="44.52687" lon="1.25508">
        <ele>224.61</ele>
        <time>2024-10-02T12:23:26Z</time>
      </trkpt>
      <trkpt lat="44.52674" lon="1.25499">
        <ele>224.12</ele>
        <time>2024-10-02T12:23:38Z</time>
      </trkpt>
      <trkpt lat="44.5266" lon="1.25493">
        <ele>223.64</ele>
        <time>2024-10-02T12:23:50Z</time>
      </trkpt>
      <trkpt lat="44.52645" lon="1.2549">
        <ele>222.68</ele>
        <time>2024-10-02T12:24:03Z</time>
      </trkpt>
      <trkpt lat="44.52632" lon="1.25495">
        <ele>221.72</ele>
        <time>2024-10-02T12:24:14Z</time>
      </trkpt>
      <trkpt lat="44.52631" lon="1.25495">
        <ele>221.72</ele>
        <time>2024-10-02T12:24:15Z</time>
      </trkpt>
      <trkpt lat="44.5263" lon="1.25496">
        <ele>221.72</ele>
        <time>2024-10-02T12:24:16Z</time>
      </trkpt>
      <trkpt lat="44.52616" lon="1.2551">
        <ele>221.24</ele>
        <time>2024-10-02T12:24:29Z</time>
      </trkpt>
      <trkpt lat="44.52604" lon="1.25518">
        <ele>219.8</ele>
        <time>2024-10-02T12:24:40Z</time>
      </trkpt>
      <trkpt lat="44.52589" lon="1.25526">
        <ele>219.32</ele>
        <time>2024-10-02T12:24:53Z</time>
      </trkpt>
      <trkpt lat="44.52578" lon="1.25533">
        <ele>218.84</ele>
        <time>2024-10-02T12:25:03Z</time>
      </trkpt>
      <trkpt lat="44.52577" lon="1.25533">
        <ele>218.84</ele>
        <time>2024-10-02T12:25:05Z</time>
      </trkpt>
      <trkpt lat="44.52576" lon="1.25534">
        <ele>218.84</ele>
        <time>2024-10-02T12:25:06Z</time>
      </trkpt>
      <trkpt lat="44.52567" lon="1.25538">
        <ele>218.36</ele>
        <time>2024-10-02T12:25:10Z</time>
      </trkpt>
      <trkpt lat="44.52566" lon="1.25538">
        <ele>218.36</ele>
        <time>2024-10-02T12:25:11Z</time>
      </trkpt>
      <trkpt lat="44.52564" lon="1.25538">
        <ele>218.36</ele>
        <time>2024-10-02T12:25:12Z</time>
      </trkpt>
      <trkpt lat="44.52551" lon="1.25536">
        <ele>217.4</ele>
        <time>2024-10-02T12:25:24Z</time>
      </trkpt>
      <trkpt lat="44.5254" lon="1.25531">
        <ele>216.43</ele>
        <time>2024-10-02T12:25:37Z</time>
      </trkpt>
      <trkpt lat="44.52527" lon="1.25523">
        <ele>215.95</ele>
        <time>2024-10-02T12:25:48Z</time>
      </trkpt>
      <trkpt lat="44.52512" lon="1.25512">
        <ele>214.99</ele>
        <time>2024-10-02T12:25:59Z</time>
      </trkpt>
      <trkpt lat="44.52507" lon="1.25507">
        <ele>214.51</ele>
        <time>2024-10-02T12:26:06Z</time>
      </trkpt>
      <trkpt lat="44.52505" lon="1.25506">
        <ele>214.51</ele>
        <time>2024-10-02T12:26:07Z</time>
      </trkpt>
      <trkpt lat="44.52495" lon="1.25487">
        <ele>213.55</ele>
        <time>2024-10-02T12:26:20Z</time>
      </trkpt>
      <trkpt lat="44.52488" lon="1.25467">
        <ele>213.07</ele>
        <time>2024-10-02T12:26:33Z</time>
      </trkpt>
      <trkpt lat="44.52475" lon="1.25445">
        <ele>212.11</ele>
        <time>2024-10-02T12:26:46Z</time>
      </trkpt>
      <trkpt lat="44.52468" lon="1.25429">
        <ele>211.15</ele>
        <time>2024-10-02T12:26:57Z</time>
      </trkpt>
      <trkpt lat="44.52463" lon="1.25409">
        <ele>210.67</ele>
        <time>2024-10-02T12:27:09Z</time>
      </trkpt>
      <trkpt lat="44.52461" lon="1.25384">
        <ele>209.7</ele>
        <time>2024-10-02T12:27:23Z</time>
      </trkpt>
      <trkpt lat="44.52459" lon="1.25363">
        <ele>209.22</ele>
        <time>2024-10-02T12:27:35Z</time>
      </trkpt>
      <trkpt lat="44.52456" lon="1.25347">
        <ele>208.74</ele>
        <time>2024-10-02T12:27:46Z</time>
      </trkpt>
      <trkpt lat="44.52449" lon="1.25324">
        <ele>208.26</ele>
        <time>2024-10-02T12:27:57Z</time>
      </trkpt>
      <trkpt lat="44.52448" lon="1.25323">
        <ele>207.78</ele>
        <time>2024-10-02T12:27:59Z</time>
      </trkpt>
      <trkpt lat="44.52447" lon="1.25322">
        <ele>207.78</ele>
        <time>2024-10-02T12:28:00Z</time>
      </trkpt>
      <trkpt lat="44.52446" lon="1.2532">
        <ele>207.78</ele>
        <time>2024-10-02T12:28:01Z</time>
      </trkpt>
      <trkpt lat="44.52444" lon="1.25319">
        <ele>207.78</ele>
        <time>2024-10-02T12:28:02Z</time>
      </trkpt>
      <trkpt lat="44.52442" lon="1.25317">
        <ele>207.3</ele>
        <time>2024-10-02T12:28:03Z</time>
      </trkpt>
      <trkpt lat="44.5244" lon="1.25316">
        <ele>207.3</ele>
        <time>2024-10-02T12:28:04Z</time>
      </trkpt>
      <trkpt lat="44.52439" lon="1.25314">
        <ele>207.3</ele>
        <time>2024-10-02T12:28:06Z</time>
      </trkpt>
      <trkpt lat="44.52427" lon="1.253">
        <ele>206.82</ele>
        <time>2024-10-02T12:28:21Z</time>
      </trkpt>
      <trkpt lat="44.52411" lon="1.25284">
        <ele>205.86</ele>
        <time>2024-10-02T12:28:38Z</time>
      </trkpt>
      <trkpt lat="44.52402" lon="1.25273">
        <ele>204.9</ele>
        <time>2024-10-02T12:28:50Z</time>
      </trkpt>
      <trkpt lat="44.52406" lon="1.25268">
        <ele>203.46</ele>
        <time>2024-10-02T12:29:03Z</time>
      </trkpt>
      <trkpt lat="44.5241" lon="1.25268">
        <ele>202.01</ele>
        <time>2024-10-02T12:29:11Z</time>
      </trkpt>
      <trkpt lat="44.52412" lon="1.25267">
        <ele>202.01</ele>
        <time>2024-10-02T12:29:12Z</time>
      </trkpt>
      <trkpt lat="44.52422" lon="1.25266">
        <ele>200.09</ele>
        <time>2024-10-02T12:29:23Z</time>
      </trkpt>
      <trkpt lat="44.52438" lon="1.25265">
        <ele>197.69</ele>
        <time>2024-10-02T12:29:39Z</time>
      </trkpt>
      <trkpt lat="44.52459" lon="1.25273">
        <ele>196.25</ele>
        <time>2024-10-02T12:29:56Z</time>
      </trkpt>
      <trkpt lat="44.5248" lon="1.25283">
        <ele>193.84</ele>
        <time>2024-10-02T12:30:14Z</time>
      </trkpt>
      <trkpt lat="44.52496" lon="1.25289">
        <ele>192.88</ele>
        <time>2024-10-02T12:30:28Z</time>
      </trkpt>
      <trkpt lat="44.5251" lon="1.25292">
        <ele>191.92</ele>
        <time>2024-10-02T12:30:42Z</time>
      </trkpt>
      <trkpt lat="44.52521" lon="1.25303">
        <ele>191.44</ele>
        <time>2024-10-02T12:30:57Z</time>
      </trkpt>
      <trkpt lat="44.52535" lon="1.25312">
        <ele>190.96</ele>
        <time>2024-10-02T12:31:12Z</time>
      </trkpt>
      <trkpt lat="44.52545" lon="1.25313">
        <ele>192.4</ele>
        <time>2024-10-02T12:31:23Z</time>
      </trkpt>
      <trkpt lat="44.52557" lon="1.25317">
        <ele>192.88</ele>
        <time>2024-10-02T12:31:39Z</time>
      </trkpt>
      <trkpt lat="44.52575" lon="1.25324">
        <ele>192.88</ele>
        <time>2024-10-02T12:31:56Z</time>
      </trkpt>
      <trkpt lat="44.52591" lon="1.25325">
        <ele>192.88</ele>
        <time>2024-10-02T12:32:11Z</time>
      </trkpt>
      <trkpt lat="44.52611" lon="1.25318">
        <ele>192.88</ele>
        <time>2024-10-02T12:32:26Z</time>
      </trkpt>
      <trkpt lat="44.52626" lon="1.25311">
        <ele>191.92</ele>
        <time>2024-10-02T12:32:39Z</time>
      </trkpt>
      <trkpt lat="44.52638" lon="1.25305">
        <ele>190.96</ele>
        <time>2024-10-02T12:32:51Z</time>
      </trkpt>
      <trkpt lat="44.52655" lon="1.25302">
        <ele>190</ele>
        <time>2024-10-02T12:33:07Z</time>
      </trkpt>
      <trkpt lat="44.52667" lon="1.25303">
        <ele>190</ele>
        <time>2024-10-02T12:33:21Z</time>
      </trkpt>
      <trkpt lat="44.52683" lon="1.25303">
        <ele>189.52</ele>
        <time>2024-10-02T12:33:36Z</time>
      </trkpt>
      <trkpt lat="44.52699" lon="1.25301">
        <ele>189.52</ele>
        <time>2024-10-02T12:33:52Z</time>
      </trkpt>
      <trkpt lat="44.52712" lon="1.25297">
        <ele>189.52</ele>
        <time>2024-10-02T12:34:03Z</time>
      </trkpt>
      <trkpt lat="44.52719" lon="1.25294">
        <ele>190.96</ele>
        <time>2024-10-02T12:34:09Z</time>
      </trkpt>
      <trkpt lat="44.5273" lon="1.25293">
        <ele>191.44</ele>
        <time>2024-10-02T12:34:27Z</time>
      </trkpt>
      <trkpt lat="44.52732" lon="1.25292">
        <ele>190</ele>
        <time>2024-10-02T12:34:32Z</time>
      </trkpt>
      <trkpt lat="44.52734" lon="1.25291">
        <ele>191.44</ele>
        <time>2024-10-02T12:34:34Z</time>
      </trkpt>
      <trkpt lat="44.52744" lon="1.25283">
        <ele>190</ele>
        <time>2024-10-02T12:34:45Z</time>
      </trkpt>
      <trkpt lat="44.52749" lon="1.25281">
        <ele>190</ele>
        <time>2024-10-02T12:34:50Z</time>
      </trkpt>
      <trkpt lat="44.52751" lon="1.2528">
        <ele>190</ele>
        <time>2024-10-02T12:34:51Z</time>
      </trkpt>
      <trkpt lat="44.52759" lon="1.25275">
        <ele>188.56</ele>
        <time>2024-10-02T12:35:04Z</time>
      </trkpt>
      <trkpt lat="44.52777" lon="1.25262">
        <ele>187.11</ele>
        <time>2024-10-02T12:35:20Z</time>
      </trkpt>
      <trkpt lat="44.5279" lon="1.25273">
        <ele>186.15</ele>
        <time>2024-10-02T12:35:34Z</time>
      </trkpt>
      <trkpt lat="44.52806" lon="1.25284">
        <ele>186.15</ele>
        <time>2024-10-02T12:35:48Z</time>
      </trkpt>
      <trkpt lat="44.52819" lon="1.25286">
        <ele>186.15</ele>
        <time>2024-10-02T12:36:02Z</time>
      </trkpt>
      <trkpt lat="44.52834" lon="1.25288">
        <ele>186.15</ele>
        <time>2024-10-02T12:36:18Z</time>
      </trkpt>
      <trkpt lat="44.52851" lon="1.25281">
        <ele>187.11</ele>
        <time>2024-10-02T12:36:31Z</time>
      </trkpt>
      <trkpt lat="44.52866" lon="1.25271">
        <ele>187.59</ele>
        <time>2024-10-02T12:36:47Z</time>
      </trkpt>
      <trkpt lat="44.52878" lon="1.25257">
        <ele>188.08</ele>
        <time>2024-10-02T12:37:02Z</time>
      </trkpt>
      <trkpt lat="44.52889" lon="1.25243">
        <ele>189.04</ele>
        <time>2024-10-02T12:37:16Z</time>
      </trkpt>
      <trkpt lat="44.52899" lon="1.2523">
        <ele>190</ele>
        <time>2024-10-02T12:37:29Z</time>
      </trkpt>
      <trkpt lat="44.52911" lon="1.25221">
        <ele>191.44</ele>
        <time>2024-10-02T12:37:44Z</time>
      </trkpt>
      <trkpt lat="44.52921" lon="1.25216">
        <ele>191.92</ele>
        <time>2024-10-02T12:37:56Z</time>
      </trkpt>
      <trkpt lat="44.52932" lon="1.25211">
        <ele>193.84</ele>
        <time>2024-10-02T12:38:08Z</time>
      </trkpt>
      <trkpt lat="44.52936" lon="1.25212">
        <ele>193.36</ele>
        <time>2024-10-02T12:38:27Z</time>
      </trkpt>
      <trkpt lat="44.52936" lon="1.25224">
        <ele>194.32</ele>
        <time>2024-10-02T12:38:39Z</time>
      </trkpt>
      <trkpt lat="44.52942" lon="1.25239">
        <ele>194.8</ele>
        <time>2024-10-02T12:38:53Z</time>
      </trkpt>
      <trkpt lat="44.52945" lon="1.25249">
        <ele>192.4</ele>
        <time>2024-10-02T12:39:10Z</time>
      </trkpt>
      <trkpt lat="44.52948" lon="1.25262">
        <ele>191.92</ele>
        <time>2024-10-02T12:39:24Z</time>
      </trkpt>
      <trkpt lat="44.52951" lon="1.25275">
        <ele>190.96</ele>
        <time>2024-10-02T12:39:34Z</time>
      </trkpt>
      <trkpt lat="44.52952" lon="1.25279">
        <ele>190.96</ele>
        <time>2024-10-02T12:39:50Z</time>
      </trkpt>
      <trkpt lat="44.52956" lon="1.25294">
        <ele>190</ele>
        <time>2024-10-02T12:40:09Z</time>
      </trkpt>
      <trkpt lat="44.52961" lon="1.25303">
        <ele>189.04</ele>
        <time>2024-10-02T12:40:30Z</time>
      </trkpt>
      <trkpt lat="44.52966" lon="1.25315">
        <ele>188.08</ele>
        <time>2024-10-02T12:40:43Z</time>
      </trkpt>
      <trkpt lat="44.52974" lon="1.25332">
        <ele>187.11</ele>
        <time>2024-10-02T12:41:01Z</time>
      </trkpt>
      <trkpt lat="44.52988" lon="1.25351">
        <ele>185.67</ele>
        <time>2024-10-02T12:41:20Z</time>
      </trkpt>
      <trkpt lat="44.52999" lon="1.25353">
        <ele>183.75</ele>
        <time>2024-10-02T12:41:34Z</time>
      </trkpt>
      <trkpt lat="44.53007" lon="1.25349">
        <ele>182.79</ele>
        <time>2024-10-02T12:41:49Z</time>
      </trkpt>
      <trkpt lat="44.53008" lon="1.2534">
        <ele>181.83</ele>
        <time>2024-10-02T12:42:02Z</time>
      </trkpt>
      <trkpt lat="44.53007" lon="1.25333">
        <ele>180.87</ele>
        <time>2024-10-02T12:42:16Z</time>
      </trkpt>
      <trkpt lat="44.53007" lon="1.25333">
        <ele>182.31</ele>
        <time>2024-10-02T12:42:22Z</time>
      </trkpt>
      <trkpt lat="44.53007" lon="1.25313">
        <ele>180.38</ele>
        <time>2024-10-02T12:42:39Z</time>
      </trkpt>
      <trkpt lat="44.53009" lon="1.253">
        <ele>179.9</ele>
        <time>2024-10-02T12:42:56Z</time>
      </trkpt>
      <trkpt lat="44.53011" lon="1.25283">
        <ele>178.94</ele>
        <time>2024-10-02T12:43:10Z</time>
      </trkpt>
      <trkpt lat="44.53017" lon="1.25255">
        <ele>178.94</ele>
        <time>2024-10-02T12:43:25Z</time>
      </trkpt>
      <trkpt lat="44.53025" lon="1.25232">
        <ele>177.02</ele>
        <time>2024-10-02T12:43:41Z</time>
      </trkpt>
      <trkpt lat="44.53035" lon="1.25214">
        <ele>176.06</ele>
        <time>2024-10-02T12:43:56Z</time>
      </trkpt>
      <trkpt lat="44.5305" lon="1.25187">
        <ele>175.58</ele>
        <time>2024-10-02T12:44:14Z</time>
      </trkpt>
      <trkpt lat="44.53059" lon="1.25172">
        <ele>174.62</ele>
        <time>2024-10-02T12:44:30Z</time>
      </trkpt>
      <trkpt lat="44.53069" lon="1.25159">
        <ele>173.17</ele>
        <time>2024-10-02T12:44:46Z</time>
      </trkpt>
      <trkpt lat="44.53084" lon="1.25153">
        <ele>170.29</ele>
        <time>2024-10-02T12:45:03Z</time>
      </trkpt>
      <trkpt lat="44.53098" lon="1.25143">
        <ele>168.85</ele>
        <time>2024-10-02T12:45:19Z</time>
      </trkpt>
      <trkpt lat="44.53109" lon="1.2513">
        <ele>168.37</ele>
        <time>2024-10-02T12:45:35Z</time>
      </trkpt>
      <trkpt lat="44.53124" lon="1.25115">
        <ele>167.41</ele>
        <time>2024-10-02T12:45:50Z</time>
      </trkpt>
      <trkpt lat="44.53135" lon="1.25105">
        <ele>166.45</ele>
        <time>2024-10-02T12:46:04Z</time>
      </trkpt>
      <trkpt lat="44.53144" lon="1.25095">
        <ele>165.48</ele>
        <time>2024-10-02T12:46:21Z</time>
      </trkpt>
      <trkpt lat="44.53147" lon="1.25089">
        <ele>165.48</ele>
        <time>2024-10-02T12:46:36Z</time>
      </trkpt>
      <trkpt lat="44.53156" lon="1.2508">
        <ele>164.04</ele>
        <time>2024-10-02T12:46:44Z</time>
      </trkpt>
      <trkpt lat="44.53175" lon="1.25061">
        <ele>162.12</ele>
        <time>2024-10-02T12:47:01Z</time>
      </trkpt>
      <trkpt lat="44.53184" lon="1.25049">
        <ele>161.64</ele>
        <time>2024-10-02T12:47:15Z</time>
      </trkpt>
      <trkpt lat="44.53192" lon="1.2504">
        <ele>160.2</ele>
        <time>2024-10-02T12:47:33Z</time>
      </trkpt>
      <trkpt lat="44.53207" lon="1.25022">
        <ele>158.75</ele>
        <time>2024-10-02T12:47:49Z</time>
      </trkpt>
      <trkpt lat="44.53214" lon="1.25014">
        <ele>158.27</ele>
        <time>2024-10-02T12:48:06Z</time>
      </trkpt>
      <trkpt lat="44.53223" lon="1.24991">
        <ele>157.79</ele>
        <time>2024-10-02T12:48:24Z</time>
      </trkpt>
      <trkpt lat="44.53233" lon="1.24964">
        <ele>157.79</ele>
        <time>2024-10-02T12:48:42Z</time>
      </trkpt>
      <trkpt lat="44.53244" lon="1.24942">
        <ele>157.31</ele>
        <time>2024-10-02T12:48:59Z</time>
      </trkpt>
      <trkpt lat="44.53251" lon="1.24925">
        <ele>156.83</ele>
        <time>2024-10-02T12:49:16Z</time>
      </trkpt>
      <trkpt lat="44.53262" lon="1.24904">
        <ele>154.43</ele>
        <time>2024-10-02T12:49:31Z</time>
      </trkpt>
      <trkpt lat="44.53273" lon="1.24889">
        <ele>152.03</ele>
        <time>2024-10-02T12:49:47Z</time>
      </trkpt>
      <trkpt lat="44.53283" lon="1.24863">
        <ele>151.06</ele>
        <time>2024-10-02T12:50:03Z</time>
      </trkpt>
      <trkpt lat="44.53289" lon="1.24846">
        <ele>150.1</ele>
        <time>2024-10-02T12:50:19Z</time>
      </trkpt>
      <trkpt lat="44.53293" lon="1.24831">
        <ele>149.14</ele>
        <time>2024-10-02T12:50:34Z</time>
      </trkpt>
      <trkpt lat="44.53296" lon="1.24811">
        <ele>147.7</ele>
        <time>2024-10-02T12:50:50Z</time>
      </trkpt>
      <trkpt lat="44.53296" lon="1.24788">
        <ele>147.7</ele>
        <time>2024-10-02T12:51:13Z</time>
      </trkpt>
      <trkpt lat="44.533" lon="1.24774">
        <ele>146.26</ele>
        <time>2024-10-02T12:51:26Z</time>
      </trkpt>
      <trkpt lat="44.53306" lon="1.24758">
        <ele>144.82</ele>
        <time>2024-10-02T12:51:39Z</time>
      </trkpt>
      <trkpt lat="44.53314" lon="1.24742">
        <ele>143.85</ele>
        <time>2024-10-02T12:51:55Z</time>
      </trkpt>
      <trkpt lat="44.53321" lon="1.24728">
        <ele>142.41</ele>
        <time>2024-10-02T12:52:14Z</time>
      </trkpt>
      <trkpt lat="44.53331" lon="1.24708">
        <ele>141.93</ele>
        <time>2024-10-02T12:52:29Z</time>
      </trkpt>
      <trkpt lat="44.53336" lon="1.24695">
        <ele>141.93</ele>
        <time>2024-10-02T12:52:42Z</time>
      </trkpt>
      <trkpt lat="44.53343" lon="1.24693">
        <ele>140.97</ele>
        <time>2024-10-02T12:52:56Z</time>
      </trkpt>
      <trkpt lat="44.53361" lon="1.24685">
        <ele>140.97</ele>
        <time>2024-10-02T12:53:12Z</time>
      </trkpt>
      <trkpt lat="44.53364" lon="1.24684">
        <ele>139.53</ele>
        <time>2024-10-02T12:53:14Z</time>
      </trkpt>
      <trkpt lat="44.53379" lon="1.24677">
        <ele>139.53</ele>
        <time>2024-10-02T12:53:29Z</time>
      </trkpt>
      <trkpt lat="44.53392" lon="1.24663">
        <ele>140.49</ele>
        <time>2024-10-02T12:53:43Z</time>
      </trkpt>
      <trkpt lat="44.53408" lon="1.24647">
        <ele>140.49</ele>
        <time>2024-10-02T12:53:59Z</time>
      </trkpt>
      <trkpt lat="44.53409" lon="1.24645">
        <ele>140.49</ele>
        <time>2024-10-02T12:54:01Z</time>
      </trkpt>
      <trkpt lat="44.53421" lon="1.24633">
        <ele>139.05</ele>
        <time>2024-10-02T12:54:18Z</time>
      </trkpt>
      <trkpt lat="44.53436" lon="1.24617">
        <ele>138.57</ele>
        <time>2024-10-02T12:54:34Z</time>
      </trkpt>
      <trkpt lat="44.53443" lon="1.24605">
        <ele>138.09</ele>
        <time>2024-10-02T12:54:46Z</time>
      </trkpt>
      <trkpt lat="44.53448" lon="1.246">
        <ele>137.61</ele>
        <time>2024-10-02T12:55:04Z</time>
      </trkpt>
      <trkpt lat="44.53447" lon="1.24592">
        <ele>137.61</ele>
        <time>2024-10-02T12:55:19Z</time>
      </trkpt>
      <trkpt lat="44.53451" lon="1.24582">
        <ele>137.61</ele>
        <time>2024-10-02T12:55:34Z</time>
      </trkpt>
      <trkpt lat="44.53462" lon="1.24571">
        <ele>137.61</ele>
        <time>2024-10-02T12:55:48Z</time>
      </trkpt>
      <trkpt lat="44.5347" lon="1.24558">
        <ele>138.57</ele>
        <time>2024-10-02T12:56:02Z</time>
      </trkpt>
      <trkpt lat="44.53475" lon="1.24555">
        <ele>139.05</ele>
        <time>2024-10-02T12:56:18Z</time>
      </trkpt>
      <trkpt lat="44.53485" lon="1.24548">
        <ele>138.09</ele>
        <time>2024-10-02T12:56:32Z</time>
      </trkpt>
      <trkpt lat="44.53497" lon="1.24533">
        <ele>136.16</ele>
        <time>2024-10-02T12:56:51Z</time>
      </trkpt>
      <trkpt lat="44.53502" lon="1.24519">
        <ele>136.16</ele>
        <time>2024-10-02T12:57:03Z</time>
      </trkpt>
      <trkpt lat="44.53499" lon="1.24507">
        <ele>136.16</ele>
        <time>2024-10-02T12:57:17Z</time>
      </trkpt>
      <trkpt lat="44.53496" lon="1.24502">
        <ele>137.13</ele>
        <time>2024-10-02T12:57:22Z</time>
      </trkpt>
      <trkpt lat="44.53482" lon="1.24483">
        <ele>138.09</ele>
        <time>2024-10-02T12:57:37Z</time>
      </trkpt>
      <trkpt lat="44.53472" lon="1.24471">
        <ele>138.09</ele>
        <time>2024-10-02T12:57:51Z</time>
      </trkpt>
      <trkpt lat="44.5347" lon="1.24469">
        <ele>136.64</ele>
        <time>2024-10-02T12:57:55Z</time>
      </trkpt>
      <trkpt lat="44.53459" lon="1.24459">
        <ele>135.68</ele>
        <time>2024-10-02T12:58:05Z</time>
      </trkpt>
      <trkpt lat="44.53438" lon="1.24458">
        <ele>134.24</ele>
        <time>2024-10-02T12:58:21Z</time>
      </trkpt>
      <trkpt lat="44.53425" lon="1.24462">
        <ele>132.32</ele>
        <time>2024-10-02T12:58:36Z</time>
      </trkpt>
      <trkpt lat="44.5341" lon="1.24462">
        <ele>130.88</ele>
        <time>2024-10-02T12:58:54Z</time>
      </trkpt>
      <trkpt lat="44.534" lon="1.24451">
        <ele>130.4</ele>
        <time>2024-10-02T12:59:08Z</time>
      </trkpt>
      <trkpt lat="44.53391" lon="1.24431">
        <ele>129.92</ele>
        <time>2024-10-02T12:59:22Z</time>
      </trkpt>
      <trkpt lat="44.53387" lon="1.24411">
        <ele>129.43</ele>
        <time>2024-10-02T12:59:37Z</time>
      </trkpt>
      <trkpt lat="44.53384" lon="1.24399">
        <ele>129.43</ele>
        <time>2024-10-02T12:59:51Z</time>
      </trkpt>
      <trkpt lat="44.53376" lon="1.24382">
        <ele>128.47</ele>
        <time>2024-10-02T13:00:08Z</time>
      </trkpt>
      <trkpt lat="44.53366" lon="1.24367">
        <ele>127.99</ele>
        <time>2024-10-02T13:00:18Z</time>
      </trkpt>
      <trkpt lat="44.53359" lon="1.24358">
        <ele>127.99</ele>
        <time>2024-10-02T13:00:25Z</time>
      </trkpt>
      <trkpt lat="44.53346" lon="1.24333">
        <ele>127.51</ele>
        <time>2024-10-02T13:00:39Z</time>
      </trkpt>
      <trkpt lat="44.53341" lon="1.24321">
        <ele>127.51</ele>
        <time>2024-10-02T13:00:46Z</time>
      </trkpt>
      <trkpt lat="44.53331" lon="1.24292">
        <ele>127.03</ele>
        <time>2024-10-02T13:01:06Z</time>
      </trkpt>
      <trkpt lat="44.53324" lon="1.24272">
        <ele>126.55</ele>
        <time>2024-10-02T13:01:20Z</time>
      </trkpt>
      <trkpt lat="44.53318" lon="1.24259">
        <ele>126.55</ele>
        <time>2024-10-02T13:01:33Z</time>
      </trkpt>
      <trkpt lat="44.53308" lon="1.24244">
        <ele>126.07</ele>
        <time>2024-10-02T13:01:47Z</time>
      </trkpt>
      <trkpt lat="44.5329" lon="1.24227">
        <ele>125.59</ele>
        <time>2024-10-02T13:02:05Z</time>
      </trkpt>
      <trkpt lat="44.53279" lon="1.24209">
        <ele>125.11</ele>
        <time>2024-10-02T13:02:21Z</time>
      </trkpt>
      <trkpt lat="44.53269" lon="1.24195">
        <ele>124.63</ele>
        <time>2024-10-02T13:02:36Z</time>
      </trkpt>
      <trkpt lat="44.53262" lon="1.24183">
        <ele>125.11</ele>
        <time>2024-10-02T13:02:47Z</time>
      </trkpt>
      <trkpt lat="44.53258" lon="1.24179">
        <ele>123.67</ele>
        <time>2024-10-02T13:02:55Z</time>
      </trkpt>
      <trkpt lat="44.53255" lon="1.24175">
        <ele>123.67</ele>
        <time>2024-10-02T13:02:59Z</time>
      </trkpt>
      <trkpt lat="44.53235" lon="1.2416">
        <ele>123.67</ele>
        <time>2024-10-02T13:03:16Z</time>
      </trkpt>
      <trkpt lat="44.53229" lon="1.24155">
        <ele>123.67</ele>
        <time>2024-10-02T13:03:21Z</time>
      </trkpt>
      <trkpt lat="44.53209" lon="1.2414">
        <ele>123.19</ele>
        <time>2024-10-02T13:03:38Z</time>
      </trkpt>
      <trkpt lat="44.53199" lon="1.24117">
        <ele>123.19</ele>
        <time>2024-10-02T13:03:56Z</time>
      </trkpt>
      <trkpt lat="44.53184" lon="1.24102">
        <ele>123.19</ele>
        <time>2024-10-02T13:04:11Z</time>
      </trkpt>
      <trkpt lat="44.5317" lon="1.24095">
        <ele>122.71</ele>
        <time>2024-10-02T13:04:25Z</time>
      </trkpt>
      <trkpt lat="44.53154" lon="1.24091">
        <ele>122.22</ele>
        <time>2024-10-02T13:04:39Z</time>
      </trkpt>
      <trkpt lat="44.53137" lon="1.24086">
        <ele>121.26</ele>
        <time>2024-10-02T13:04:55Z</time>
      </trkpt>
      <trkpt lat="44.53118" lon="1.24077">
        <ele>120.78</ele>
        <time>2024-10-02T13:05:12Z</time>
      </trkpt>
      <trkpt lat="44.531" lon="1.24064">
        <ele>120.3</ele>
        <time>2024-10-02T13:05:27Z</time>
      </trkpt>
      <trkpt lat="44.53089" lon="1.24058">
        <ele>120.3</ele>
        <time>2024-10-02T13:05:42Z</time>
      </trkpt>
      <trkpt lat="44.53086" lon="1.24056">
        <ele>120.3</ele>
        <time>2024-10-02T13:05:52Z</time>
      </trkpt>
      <trkpt lat="44.53085" lon="1.24048">
        <ele>121.26</ele>
        <time>2024-10-02T13:05:58Z</time>
      </trkpt>
      <trkpt lat="44.53075" lon="1.24025">
        <ele>121.26</ele>
        <time>2024-10-02T13:06:17Z</time>
      </trkpt>
      <trkpt lat="44.53064" lon="1.24001">
        <ele>121.26</ele>
        <time>2024-10-02T13:06:35Z</time>
      </trkpt>
      <trkpt lat="44.53051" lon="1.2398">
        <ele>121.74</ele>
        <time>2024-10-02T13:06:52Z</time>
      </trkpt>
      <trkpt lat="44.53034" lon="1.23962">
        <ele>121.74</ele>
        <time>2024-10-02T13:07:08Z</time>
      </trkpt>
      <trkpt lat="44.53021" lon="1.23948">
        <ele>121.74</ele>
        <time>2024-10-02T13:07:21Z</time>
      </trkpt>
      <trkpt lat="44.53018" lon="1.2394">
        <ele>121.74</ele>
        <time>2024-10-02T13:07:27Z</time>
      </trkpt>
      <trkpt lat="44.53015" lon="1.23933">
        <ele>121.74</ele>
        <time>2024-10-02T13:07:32Z</time>
      </trkpt>
      <trkpt lat="44.53015" lon="1.23931">
        <ele>121.74</ele>
        <time>2024-10-02T13:07:33Z</time>
      </trkpt>
      <trkpt lat="44.53014" lon="1.23929">
        <ele>120.3</ele>
        <time>2024-10-02T13:07:34Z</time>
      </trkpt>
      <trkpt lat="44.53007" lon="1.23913">
        <ele>119.82</ele>
        <time>2024-10-02T13:07:46Z</time>
      </trkpt>
      <trkpt lat="44.52996" lon="1.23888">
        <ele>118.86</ele>
        <time>2024-10-02T13:08:03Z</time>
      </trkpt>
      <trkpt lat="44.52989" lon="1.23861">
        <ele>118.38</ele>
        <time>2024-10-02T13:08:16Z</time>
      </trkpt>
      <trkpt lat="44.52989" lon="1.2386">
        <ele>118.38</ele>
        <time>2024-10-02T13:08:17Z</time>
      </trkpt>
      <trkpt lat="44.52989" lon="1.23858">
        <ele>118.38</ele>
        <time>2024-10-02T13:08:18Z</time>
      </trkpt>
      <trkpt lat="44.5299" lon="1.23848">
        <ele>117.9</ele>
        <time>2024-10-02T13:08:26Z</time>
      </trkpt>
      <trkpt lat="44.5299" lon="1.23846">
        <ele>117.9</ele>
        <time>2024-10-02T13:08:27Z</time>
      </trkpt>
      <trkpt lat="44.5299" lon="1.23845">
        <ele>117.9</ele>
        <time>2024-10-02T13:08:28Z</time>
      </trkpt>
      <trkpt lat="44.52996" lon="1.23813">
        <ele>115.98</ele>
        <time>2024-10-02T13:08:48Z</time>
      </trkpt>
      <trkpt lat="44.53005" lon="1.2379">
        <ele>115.98</ele>
        <time>2024-10-02T13:09:02Z</time>
      </trkpt>
      <trkpt lat="44.53015" lon="1.2376">
        <ele>115.01</ele>
        <time>2024-10-02T13:09:23Z</time>
      </trkpt>
      <trkpt lat="44.53015" lon="1.23756">
        <ele>115.01</ele>
        <time>2024-10-02T13:09:26Z</time>
      </trkpt>
      <trkpt lat="44.53016" lon="1.23755">
        <ele>115.01</ele>
        <time>2024-10-02T13:09:27Z</time>
      </trkpt>
      <trkpt lat="44.53015" lon="1.23753">
        <ele>115.01</ele>
        <time>2024-10-02T13:09:28Z</time>
      </trkpt>
      <trkpt lat="44.53015" lon="1.23751">
        <ele>115.01</ele>
        <time>2024-10-02T13:09:29Z</time>
      </trkpt>
      <trkpt lat="44.53014" lon="1.2375">
        <ele>115.01</ele>
        <time>2024-10-02T13:09:30Z</time>
      </trkpt>
      <trkpt lat="44.53014" lon="1.23748">
        <ele>115.01</ele>
        <time>2024-10-02T13:09:31Z</time>
      </trkpt>
      <trkpt lat="44.52998" lon="1.23725">
        <ele>115.01</ele>
        <time>2024-10-02T13:09:50Z</time>
      </trkpt>
      <trkpt lat="44.52986" lon="1.23707">
        <ele>114.53</ele>
        <time>2024-10-02T13:10:06Z</time>
      </trkpt>
      <trkpt lat="44.52979" lon="1.23695">
        <ele>114.53</ele>
        <time>2024-10-02T13:10:17Z</time>
      </trkpt>
      <trkpt lat="44.52978" lon="1.23694">
        <ele>114.53</ele>
        <time>2024-10-02T13:10:18Z</time>
      </trkpt>
      <trkpt lat="44.52973" lon="1.23689">
        <ele>115.98</ele>
        <time>2024-10-02T13:10:23Z</time>
      </trkpt>
      <trkpt lat="44.52959" lon="1.23681">
        <ele>114.53</ele>
        <time>2024-10-02T13:10:36Z</time>
      </trkpt>
      <trkpt lat="44.52936" lon="1.23665">
        <ele>115.98</ele>
        <time>2024-10-02T13:10:56Z</time>
      </trkpt>
      <trkpt lat="44.52916" lon="1.2365">
        <ele>115.98</ele>
        <time>2024-10-02T13:11:15Z</time>
      </trkpt>
      <trkpt lat="44.52899" lon="1.23636">
        <ele>115.98</ele>
        <time>2024-10-02T13:11:33Z</time>
      </trkpt>
      <trkpt lat="44.52877" lon="1.23621">
        <ele>115.01</ele>
        <time>2024-10-02T13:11:51Z</time>
      </trkpt>
      <trkpt lat="44.52861" lon="1.23606">
        <ele>115.01</ele>
        <time>2024-10-02T13:12:08Z</time>
      </trkpt>
      <trkpt lat="44.52842" lon="1.23594">
        <ele>115.01</ele>
        <time>2024-10-02T13:12:27Z</time>
      </trkpt>
      <trkpt lat="44.52819" lon="1.23579">
        <ele>115.01</ele>
        <time>2024-10-02T13:12:46Z</time>
      </trkpt>
      <trkpt lat="44.52797" lon="1.23572">
        <ele>115.01</ele>
        <time>2024-10-02T13:13:00Z</time>
      </trkpt>
      <trkpt lat="44.52783" lon="1.23565">
        <ele>115.01</ele>
        <time>2024-10-02T13:13:13Z</time>
      </trkpt>
      <trkpt lat="44.5277" lon="1.23559">
        <ele>114.53</ele>
        <time>2024-10-02T13:13:28Z</time>
      </trkpt>
      <trkpt lat="44.52753" lon="1.23548">
        <ele>114.53</ele>
        <time>2024-10-02T13:13:43Z</time>
      </trkpt>
      <trkpt lat="44.52735" lon="1.23538">
        <ele>114.53</ele>
        <time>2024-10-02T13:13:57Z</time>
      </trkpt>
      <trkpt lat="44.52724" lon="1.23533">
        <ele>115.01</ele>
        <time>2024-10-02T13:14:11Z</time>
      </trkpt>
      <trkpt lat="44.5272" lon="1.2353">
        <ele>115.01</ele>
        <time>2024-10-02T13:14:16Z</time>
      </trkpt>
      <trkpt lat="44.52706" lon="1.23521">
        <ele>115.01</ele>
        <time>2024-10-02T13:14:29Z</time>
      </trkpt>
      <trkpt lat="44.52682" lon="1.23509">
        <ele>115.01</ele>
        <time>2024-10-02T13:14:47Z</time>
      </trkpt>
      <trkpt lat="44.52669" lon="1.23502">
        <ele>114.53</ele>
        <time>2024-10-02T13:15:02Z</time>
      </trkpt>
      <trkpt lat="44.52655" lon="1.23496">
        <ele>114.05</ele>
        <time>2024-10-02T13:15:16Z</time>
      </trkpt>
      <trkpt lat="44.52643" lon="1.23487">
        <ele>114.53</ele>
        <time>2024-10-02T13:15:28Z</time>
      </trkpt>
      <trkpt lat="44.52618" lon="1.23473">
        <ele>114.53</ele>
        <time>2024-10-02T13:15:46Z</time>
      </trkpt>
      <trkpt lat="44.52602" lon="1.23464">
        <ele>114.53</ele>
        <time>2024-10-02T13:16:03Z</time>
      </trkpt>
      <trkpt lat="44.52587" lon="1.23458">
        <ele>114.53</ele>
        <time>2024-10-02T13:16:15Z</time>
      </trkpt>
      <trkpt lat="44.52567" lon="1.23448">
        <ele>114.53</ele>
        <time>2024-10-02T13:16:31Z</time>
      </trkpt>
      <trkpt lat="44.52567" lon="1.23447">
        <ele>114.05</ele>
        <time>2024-10-02T13:16:32Z</time>
      </trkpt>
      <trkpt lat="44.52565" lon="1.23446">
        <ele>114.05</ele>
        <time>2024-10-02T13:16:34Z</time>
      </trkpt>
      <trkpt lat="44.52556" lon="1.23444">
        <ele>114.05</ele>
        <time>2024-10-02T13:16:47Z</time>
      </trkpt>
      <trkpt lat="44.52534" lon="1.23451">
        <ele>114.05</ele>
        <time>2024-10-02T13:17:06Z</time>
      </trkpt>
      <trkpt lat="44.52531" lon="1.23451">
        <ele>115.5</ele>
        <time>2024-10-02T13:17:09Z</time>
      </trkpt>
      <trkpt lat="44.52521" lon="1.23457">
        <ele>116.46</ele>
        <time>2024-10-02T13:17:22Z</time>
      </trkpt>
      <trkpt lat="44.52506" lon="1.23466">
        <ele>119.34</ele>
        <time>2024-10-02T13:17:40Z</time>
      </trkpt>
      <trkpt lat="44.52501" lon="1.2347">
        <ele>120.78</ele>
        <time>2024-10-02T13:17:47Z</time>
      </trkpt>
      <trkpt lat="44.5249" lon="1.2348">
        <ele>122.22</ele>
        <time>2024-10-02T13:18:03Z</time>
      </trkpt>
      <trkpt lat="44.52478" lon="1.23494">
        <ele>125.11</ele>
        <time>2024-10-02T13:18:21Z</time>
      </trkpt>
      <trkpt lat="44.52465" lon="1.235">
        <ele>127.51</ele>
        <time>2024-10-02T13:18:38Z</time>
      </trkpt>
      <trkpt lat="44.52454" lon="1.23506">
        <ele>129.92</ele>
        <time>2024-10-02T13:18:57Z</time>
      </trkpt>
      <trkpt lat="44.52447" lon="1.2351">
        <ele>131.84</ele>
        <time>2024-10-02T13:19:13Z</time>
      </trkpt>
      <trkpt lat="44.52433" lon="1.23522">
        <ele>134.72</ele>
        <time>2024-10-02T13:19:31Z</time>
      </trkpt>
      <trkpt lat="44.5242" lon="1.23526">
        <ele>136.64</ele>
        <time>2024-10-02T13:19:50Z</time>
      </trkpt>
      <trkpt lat="44.52411" lon="1.23535">
        <ele>140.01</ele>
        <time>2024-10-02T13:20:08Z</time>
      </trkpt>
      <trkpt lat="44.52411" lon="1.23535">
        <ele>138.09</ele>
        <time>2024-10-02T13:20:12Z</time>
      </trkpt>
      <trkpt lat="44.5241" lon="1.23537">
        <ele>138.09</ele>
        <time>2024-10-02T13:20:23Z</time>
      </trkpt>
      <trkpt lat="44.52407" lon="1.23538">
        <ele>139.53</ele>
        <time>2024-10-02T13:20:30Z</time>
      </trkpt>
      <trkpt lat="44.52398" lon="1.23546">
        <ele>141.93</ele>
        <time>2024-10-02T13:20:46Z</time>
      </trkpt>
      <trkpt lat="44.52389" lon="1.23555">
        <ele>145.3</ele>
        <time>2024-10-02T13:21:01Z</time>
      </trkpt>
      <trkpt lat="44.52378" lon="1.2357">
        <ele>148.18</ele>
        <time>2024-10-02T13:21:17Z</time>
      </trkpt>
      <trkpt lat="44.52364" lon="1.23583">
        <ele>150.1</ele>
        <time>2024-10-02T13:21:32Z</time>
      </trkpt>
      <trkpt lat="44.52355" lon="1.23592">
        <ele>152.03</ele>
        <time>2024-10-02T13:21:47Z</time>
      </trkpt>
      <trkpt lat="44.5234" lon="1.2361">
        <ele>154.43</ele>
        <time>2024-10-02T13:22:07Z</time>
      </trkpt>
      <trkpt lat="44.52331" lon="1.23626">
        <ele>156.83</ele>
        <time>2024-10-02T13:22:22Z</time>
      </trkpt>
      <trkpt lat="44.52321" lon="1.23642">
        <ele>159.24</ele>
        <time>2024-10-02T13:22:39Z</time>
      </trkpt>
      <trkpt lat="44.52318" lon="1.23643">
        <ele>158.75</ele>
        <time>2024-10-02T13:22:45Z</time>
      </trkpt>
      <trkpt lat="44.52313" lon="1.23654">
        <ele>160.2</ele>
        <time>2024-10-02T13:23:05Z</time>
      </trkpt>
      <trkpt lat="44.52313" lon="1.23655">
        <ele>160.2</ele>
        <time>2024-10-02T13:23:06Z</time>
      </trkpt>
      <trkpt lat="44.52315" lon="1.23654">
        <ele>160.2</ele>
        <time>2024-10-02T13:23:21Z</time>
      </trkpt>
      <trkpt lat="44.52313" lon="1.23652">
        <ele>160.68</ele>
        <time>2024-10-02T13:23:34Z</time>
      </trkpt>
      <trkpt lat="44.52312" lon="1.23652">
        <ele>159.72</ele>
        <time>2024-10-02T13:23:52Z</time>
      </trkpt>
      <trkpt lat="44.52312" lon="1.23648">
        <ele>159.72</ele>
        <time>2024-10-02T13:24:18Z</time>
      </trkpt>
      <trkpt lat="44.52311" lon="1.2365">
        <ele>161.16</ele>
        <time>2024-10-02T13:24:50Z</time>
      </trkpt>
      <trkpt lat="44.5231" lon="1.23649">
        <ele>161.16</ele>
        <time>2024-10-02T13:25:12Z</time>
      </trkpt>
      <trkpt lat="44.52311" lon="1.23648">
        <ele>161.16</ele>
        <time>2024-10-02T13:25:46Z</time>
      </trkpt>
      <trkpt lat="44.52311" lon="1.23646">
        <ele>161.64</ele>
        <time>2024-10-02T13:26:18Z</time>
      </trkpt>
      <trkpt lat="44.52312" lon="1.23643">
        <ele>161.64</ele>
        <time>2024-10-02T13:26:49Z</time>
      </trkpt>
      <trkpt lat="44.52311" lon="1.23643">
        <ele>162.12</ele>
        <time>2024-10-02T13:27:11Z</time>
      </trkpt>
      <trkpt lat="44.5231" lon="1.23643">
        <ele>162.12</ele>
        <time>2024-10-02T13:27:26Z</time>
      </trkpt>
      <trkpt lat="44.5231" lon="1.23642">
        <ele>162.12</ele>
        <time>2024-10-02T13:27:44Z</time>
      </trkpt>
      <trkpt lat="44.52311" lon="1.23646">
        <ele>162.6</ele>
        <time>2024-10-02T13:28:08Z</time>
      </trkpt>
      <trkpt lat="44.52314" lon="1.23647">
        <ele>162.6</ele>
        <time>2024-10-02T13:28:42Z</time>
      </trkpt>
      <trkpt lat="44.52313" lon="1.2365">
        <ele>162.6</ele>
        <time>2024-10-02T13:29:10Z</time>
      </trkpt>
      <trkpt lat="44.52313" lon="1.23647">
        <ele>162.6</ele>
        <time>2024-10-02T13:29:37Z</time>
      </trkpt>
      <trkpt lat="44.52315" lon="1.23648">
        <ele>161.16</ele>
        <time>2024-10-02T13:29:55Z</time>
      </trkpt>
      <trkpt lat="44.52316" lon="1.23648">
        <ele>162.6</ele>
        <time>2024-10-02T13:29:57Z</time>
      </trkpt>
      <trkpt lat="44.52315" lon="1.23647">
        <ele>162.6</ele>
        <time>2024-10-02T13:30:35Z</time>
      </trkpt>
      <trkpt lat="44.52314" lon="1.23647">
        <ele>163.08</ele>
        <time>2024-10-02T13:31:05Z</time>
      </trkpt>
      <trkpt lat="44.52315" lon="1.23649">
        <ele>163.08</ele>
        <time>2024-10-02T13:31:36Z</time>
      </trkpt>
      <trkpt lat="44.52314" lon="1.23649">
        <ele>163.56</ele>
        <time>2024-10-02T13:32:10Z</time>
      </trkpt>
      <trkpt lat="44.52314" lon="1.23648">
        <ele>163.08</ele>
        <time>2024-10-02T13:32:25Z</time>
      </trkpt>
      <trkpt lat="44.52316" lon="1.23649">
        <ele>163.08</ele>
        <time>2024-10-02T13:32:56Z</time>
      </trkpt>
      <trkpt lat="44.52315" lon="1.2365">
        <ele>163.56</ele>
        <time>2024-10-02T13:33:27Z</time>
      </trkpt>
      <trkpt lat="44.52316" lon="1.2365">
        <ele>162.12</ele>
        <time>2024-10-02T13:33:57Z</time>
      </trkpt>
      <trkpt lat="44.52316" lon="1.2365">
        <ele>163.56</ele>
        <time>2024-10-02T13:34:16Z</time>
      </trkpt>
      <trkpt lat="44.52317" lon="1.23652">
        <ele>163.56</ele>
        <time>2024-10-02T13:34:48Z</time>
      </trkpt>
      <trkpt lat="44.52313" lon="1.23654">
        <ele>163.56</ele>
        <time>2024-10-02T13:35:01Z</time>
      </trkpt>
      <trkpt lat="44.5231" lon="1.23657">
        <ele>164.04</ele>
        <time>2024-10-02T13:35:15Z</time>
      </trkpt>
      <trkpt lat="44.52303" lon="1.23672">
        <ele>164.52</ele>
        <time>2024-10-02T13:35:30Z</time>
      </trkpt>
      <trkpt lat="44.52298" lon="1.23684">
        <ele>166.45</ele>
        <time>2024-10-02T13:35:44Z</time>
      </trkpt>
      <trkpt lat="44.52291" lon="1.237">
        <ele>165.96</ele>
        <time>2024-10-02T13:36:00Z</time>
      </trkpt>
      <trkpt lat="44.52279" lon="1.23729">
        <ele>168.37</ele>
        <time>2024-10-02T13:36:22Z</time>
      </trkpt>
      <trkpt lat="44.52271" lon="1.23748">
        <ele>171.25</ele>
        <time>2024-10-02T13:36:38Z</time>
      </trkpt>
      <trkpt lat="44.52266" lon="1.23759">
        <ele>172.69</ele>
        <time>2024-10-02T13:36:54Z</time>
      </trkpt>
      <trkpt lat="44.52254" lon="1.23777">
        <ele>176.06</ele>
        <time>2024-10-02T13:37:13Z</time>
      </trkpt>
      <trkpt lat="44.52246" lon="1.23788">
        <ele>178.94</ele>
        <time>2024-10-02T13:37:30Z</time>
      </trkpt>
      <trkpt lat="44.52236" lon="1.23803">
        <ele>180.38</ele>
        <time>2024-10-02T13:37:46Z</time>
      </trkpt>
      <trkpt lat="44.52228" lon="1.23817">
        <ele>183.75</ele>
        <time>2024-10-02T13:38:03Z</time>
      </trkpt>
      <trkpt lat="44.5222" lon="1.23835">
        <ele>185.19</ele>
        <time>2024-10-02T13:38:21Z</time>
      </trkpt>
      <trkpt lat="44.52213" lon="1.23847">
        <ele>188.08</ele>
        <time>2024-10-02T13:38:36Z</time>
      </trkpt>
      <trkpt lat="44.52202" lon="1.23861">
        <ele>190.96</ele>
        <time>2024-10-02T13:38:53Z</time>
      </trkpt>
      <trkpt lat="44.52194" lon="1.23873">
        <ele>192.88</ele>
        <time>2024-10-02T13:39:09Z</time>
      </trkpt>
      <trkpt lat="44.52185" lon="1.23882">
        <ele>195.77</ele>
        <time>2024-10-02T13:39:24Z</time>
      </trkpt>
      <trkpt lat="44.52174" lon="1.23891">
        <ele>198.17</ele>
        <time>2024-10-02T13:39:42Z</time>
      </trkpt>
      <trkpt lat="44.52161" lon="1.23899">
        <ele>200.57</ele>
        <time>2024-10-02T13:39:59Z</time>
      </trkpt>
      <trkpt lat="44.52148" lon="1.23907">
        <ele>202.98</ele>
        <time>2024-10-02T13:40:16Z</time>
      </trkpt>
      <trkpt lat="44.52134" lon="1.23913">
        <ele>204.9</ele>
        <time>2024-10-02T13:40:34Z</time>
      </trkpt>
      <trkpt lat="44.52118" lon="1.2391">
        <ele>204.9</ele>
        <time>2024-10-02T13:40:51Z</time>
      </trkpt>
      <trkpt lat="44.52107" lon="1.23912">
        <ele>205.38</ele>
        <time>2024-10-02T13:41:06Z</time>
      </trkpt>
      <trkpt lat="44.52096" lon="1.23926">
        <ele>206.82</ele>
        <time>2024-10-02T13:41:22Z</time>
      </trkpt>
      <trkpt lat="44.52086" lon="1.23941">
        <ele>207.78</ele>
        <time>2024-10-02T13:41:38Z</time>
      </trkpt>
      <trkpt lat="44.52073" lon="1.23951">
        <ele>207.78</ele>
        <time>2024-10-02T13:41:53Z</time>
      </trkpt>
      <trkpt lat="44.52065" lon="1.23963">
        <ele>206.34</ele>
        <time>2024-10-02T13:42:06Z</time>
      </trkpt>
      <trkpt lat="44.52059" lon="1.23969">
        <ele>206.34</ele>
        <time>2024-10-02T13:42:18Z</time>
      </trkpt>
      <trkpt lat="44.52044" lon="1.23965">
        <ele>204.9</ele>
        <time>2024-10-02T13:42:34Z</time>
      </trkpt>
      <trkpt lat="44.52037" lon="1.23961">
        <ele>203.94</ele>
        <time>2024-10-02T13:42:52Z</time>
      </trkpt>
      <trkpt lat="44.52029" lon="1.2395">
        <ele>203.94</ele>
        <time>2024-10-02T13:43:09Z</time>
      </trkpt>
      <trkpt lat="44.5202" lon="1.2394">
        <ele>203.94</ele>
        <time>2024-10-02T13:43:24Z</time>
      </trkpt>
      <trkpt lat="44.52011" lon="1.2394">
        <ele>203.94</ele>
        <time>2024-10-02T13:43:32Z</time>
      </trkpt>
      <trkpt lat="44.52008" lon="1.23948">
        <ele>202.98</ele>
        <time>2024-10-02T13:43:38Z</time>
      </trkpt>
      <trkpt lat="44.5201" lon="1.23972">
        <ele>201.05</ele>
        <time>2024-10-02T13:43:56Z</time>
      </trkpt>
      <trkpt lat="44.52016" lon="1.23992">
        <ele>199.13</ele>
        <time>2024-10-02T13:44:11Z</time>
      </trkpt>
      <trkpt lat="44.52023" lon="1.24016">
        <ele>196.73</ele>
        <time>2024-10-02T13:44:28Z</time>
      </trkpt>
      <trkpt lat="44.52026" lon="1.24024">
        <ele>195.77</ele>
        <time>2024-10-02T13:44:34Z</time>
      </trkpt>
      <trkpt lat="44.52031" lon="1.24048">
        <ele>195.28</ele>
        <time>2024-10-02T13:44:50Z</time>
      </trkpt>
      <trkpt lat="44.52033" lon="1.24067">
        <ele>194.32</ele>
        <time>2024-10-02T13:45:02Z</time>
      </trkpt>
      <trkpt lat="44.52032" lon="1.24097">
        <ele>192.4</ele>
        <time>2024-10-02T13:45:18Z</time>
      </trkpt>
      <trkpt lat="44.52028" lon="1.24124">
        <ele>190</ele>
        <time>2024-10-02T13:45:35Z</time>
      </trkpt>
      <trkpt lat="44.52027" lon="1.24147">
        <ele>187.11</ele>
        <time>2024-10-02T13:45:50Z</time>
      </trkpt>
      <trkpt lat="44.52029" lon="1.24173">
        <ele>185.19</ele>
        <time>2024-10-02T13:46:07Z</time>
      </trkpt>
      <trkpt lat="44.5203" lon="1.2419">
        <ele>183.27</ele>
        <time>2024-10-02T13:46:22Z</time>
      </trkpt>
      <trkpt lat="44.5203" lon="1.24207">
        <ele>181.83</ele>
        <time>2024-10-02T13:46:37Z</time>
      </trkpt>
      <trkpt lat="44.52029" lon="1.24225">
        <ele>178.46</ele>
        <time>2024-10-02T13:46:51Z</time>
      </trkpt>
      <trkpt lat="44.5203" lon="1.24244">
        <ele>176.54</ele>
        <time>2024-10-02T13:47:09Z</time>
      </trkpt>
      <trkpt lat="44.52033" lon="1.2426">
        <ele>174.62</ele>
        <time>2024-10-02T13:47:26Z</time>
      </trkpt>
      <trkpt lat="44.52033" lon="1.24277">
        <ele>172.69</ele>
        <time>2024-10-02T13:47:39Z</time>
      </trkpt>
      <trkpt lat="44.52036" lon="1.24292">
        <ele>170.29</ele>
        <time>2024-10-02T13:47:54Z</time>
      </trkpt>
      <trkpt lat="44.5204" lon="1.24305">
        <ele>167.41</ele>
        <time>2024-10-02T13:48:07Z</time>
      </trkpt>
      <trkpt lat="44.52042" lon="1.24326">
        <ele>164.52</ele>
        <time>2024-10-02T13:48:23Z</time>
      </trkpt>
      <trkpt lat="44.52042" lon="1.24346">
        <ele>163.08</ele>
        <time>2024-10-02T13:48:36Z</time>
      </trkpt>
      <trkpt lat="44.52038" lon="1.2436">
        <ele>162.6</ele>
        <time>2024-10-02T13:48:47Z</time>
      </trkpt>
      <trkpt lat="44.52027" lon="1.24376">
        <ele>159.72</ele>
        <time>2024-10-02T13:49:04Z</time>
      </trkpt>
      <trkpt lat="44.52023" lon="1.24377">
        <ele>161.16</ele>
        <time>2024-10-02T13:49:11Z</time>
      </trkpt>
      <trkpt lat="44.52019" lon="1.24389">
        <ele>160.68</ele>
        <time>2024-10-02T13:49:22Z</time>
      </trkpt>
      <trkpt lat="44.52014" lon="1.24413">
        <ele>162.12</ele>
        <time>2024-10-02T13:49:38Z</time>
      </trkpt>
      <trkpt lat="44.52013" lon="1.24427">
        <ele>162.12</ele>
        <time>2024-10-02T13:49:52Z</time>
      </trkpt>
      <trkpt lat="44.5201" lon="1.24442">
        <ele>162.12</ele>
        <time>2024-10-02T13:50:05Z</time>
      </trkpt>
      <trkpt lat="44.52007" lon="1.24453">
        <ele>160.2</ele>
        <time>2024-10-02T13:50:17Z</time>
      </trkpt>
      <trkpt lat="44.52004" lon="1.24466">
        <ele>160.68</ele>
        <time>2024-10-02T13:50:32Z</time>
      </trkpt>
      <trkpt lat="44.52002" lon="1.24479">
        <ele>160.68</ele>
        <time>2024-10-02T13:50:46Z</time>
      </trkpt>
      <trkpt lat="44.52002" lon="1.24484">
        <ele>161.64</ele>
        <time>2024-10-02T13:51:04Z</time>
      </trkpt>
      <trkpt lat="44.51998" lon="1.24501">
        <ele>161.64</ele>
        <time>2024-10-02T13:51:21Z</time>
      </trkpt>
      <trkpt lat="44.51994" lon="1.24514">
        <ele>161.64</ele>
        <time>2024-10-02T13:51:35Z</time>
      </trkpt>
      <trkpt lat="44.51982" lon="1.24521">
        <ele>163.08</ele>
        <time>2024-10-02T13:51:50Z</time>
      </trkpt>
      <trkpt lat="44.51973" lon="1.24526">
        <ele>164.04</ele>
        <time>2024-10-02T13:52:04Z</time>
      </trkpt>
      <trkpt lat="44.51961" lon="1.24532">
        <ele>165</ele>
        <time>2024-10-02T13:52:20Z</time>
      </trkpt>
      <trkpt lat="44.51946" lon="1.24537">
        <ele>165.48</ele>
        <time>2024-10-02T13:52:38Z</time>
      </trkpt>
      <trkpt lat="44.51929" lon="1.24539">
        <ele>167.89</ele>
        <time>2024-10-02T13:52:55Z</time>
      </trkpt>
      <trkpt lat="44.51924" lon="1.24559">
        <ele>168.85</ele>
        <time>2024-10-02T13:53:12Z</time>
      </trkpt>
      <trkpt lat="44.51932" lon="1.24563">
        <ele>168.85</ele>
        <time>2024-10-02T13:53:26Z</time>
      </trkpt>
      <trkpt lat="44.51928" lon="1.24567">
        <ele>168.85</ele>
        <time>2024-10-02T13:53:38Z</time>
      </trkpt>
      <trkpt lat="44.51925" lon="1.24572">
        <ele>169.81</ele>
        <time>2024-10-02T13:53:52Z</time>
      </trkpt>
      <trkpt lat="44.51928" lon="1.24585">
        <ele>171.25</ele>
        <time>2024-10-02T13:54:07Z</time>
      </trkpt>
      <trkpt lat="44.5193" lon="1.24598">
        <ele>173.17</ele>
        <time>2024-10-02T13:54:21Z</time>
      </trkpt>
      <trkpt lat="44.51934" lon="1.24616">
        <ele>174.14</ele>
        <time>2024-10-02T13:54:37Z</time>
      </trkpt>
      <trkpt lat="44.5193" lon="1.24637">
        <ele>177.02</ele>
        <time>2024-10-02T13:54:55Z</time>
      </trkpt>
      <trkpt lat="44.51929" lon="1.24646">
        <ele>177.98</ele>
        <time>2024-10-02T13:55:11Z</time>
      </trkpt>
      <trkpt lat="44.51927" lon="1.24667">
        <ele>179.9</ele>
        <time>2024-10-02T13:55:28Z</time>
      </trkpt>
      <trkpt lat="44.51927" lon="1.24692">
        <ele>182.79</ele>
        <time>2024-10-02T13:55:46Z</time>
      </trkpt>
      <trkpt lat="44.51926" lon="1.24708">
        <ele>184.71</ele>
        <time>2024-10-02T13:56:03Z</time>
      </trkpt>
      <trkpt lat="44.51927" lon="1.24719">
        <ele>185.67</ele>
        <time>2024-10-02T13:56:17Z</time>
      </trkpt>
      <trkpt lat="44.51927" lon="1.24734">
        <ele>187.59</ele>
        <time>2024-10-02T13:56:33Z</time>
      </trkpt>
      <trkpt lat="44.51927" lon="1.24737">
        <ele>188.08</ele>
        <time>2024-10-02T13:56:51Z</time>
      </trkpt>
      <trkpt lat="44.51926" lon="1.24745">
        <ele>189.04</ele>
        <time>2024-10-02T13:57:06Z</time>
      </trkpt>
      <trkpt lat="44.51925" lon="1.24766">
        <ele>190.48</ele>
        <time>2024-10-02T13:57:22Z</time>
      </trkpt>
      <trkpt lat="44.51925" lon="1.24779">
        <ele>191.92</ele>
        <time>2024-10-02T13:57:37Z</time>
      </trkpt>
      <trkpt lat="44.51927" lon="1.248">
        <ele>193.84</ele>
        <time>2024-10-02T13:57:56Z</time>
      </trkpt>
      <trkpt lat="44.51925" lon="1.24811">
        <ele>195.77</ele>
        <time>2024-10-02T13:58:12Z</time>
      </trkpt>
      <trkpt lat="44.51926" lon="1.2483">
        <ele>197.69</ele>
        <time>2024-10-02T13:58:29Z</time>
      </trkpt>
      <trkpt lat="44.51929" lon="1.24847">
        <ele>199.61</ele>
        <time>2024-10-02T13:58:44Z</time>
      </trkpt>
      <trkpt lat="44.51931" lon="1.24862">
        <ele>201.53</ele>
        <time>2024-10-02T13:58:59Z</time>
      </trkpt>
      <trkpt lat="44.5193" lon="1.24879">
        <ele>203.94</ele>
        <time>2024-10-02T13:59:15Z</time>
      </trkpt>
      <trkpt lat="44.51928" lon="1.24891">
        <ele>205.86</ele>
        <time>2024-10-02T13:59:31Z</time>
      </trkpt>
      <trkpt lat="44.51924" lon="1.24905">
        <ele>208.26</ele>
        <time>2024-10-02T13:59:48Z</time>
      </trkpt>
      <trkpt lat="44.51921" lon="1.24924">
        <ele>209.7</ele>
        <time>2024-10-02T14:00:04Z</time>
      </trkpt>
      <trkpt lat="44.51923" lon="1.24938">
        <ele>210.19</ele>
        <time>2024-10-02T14:00:18Z</time>
      </trkpt>
      <trkpt lat="44.51924" lon="1.24942">
        <ele>210.19</ele>
        <time>2024-10-02T14:00:22Z</time>
      </trkpt>
      <trkpt lat="44.5193" lon="1.24963">
        <ele>210.19</ele>
        <time>2024-10-02T14:00:37Z</time>
      </trkpt>
      <trkpt lat="44.51937" lon="1.24992">
        <ele>209.22</ele>
        <time>2024-10-02T14:00:58Z</time>
      </trkpt>
      <trkpt lat="44.5194" lon="1.25015">
        <ele>209.22</ele>
        <time>2024-10-02T14:01:15Z</time>
      </trkpt>
      <trkpt lat="44.5194" lon="1.25036">
        <ele>207.78</ele>
        <time>2024-10-02T14:01:28Z</time>
      </trkpt>
      <trkpt lat="44.51935" lon="1.2506">
        <ele>206.82</ele>
        <time>2024-10-02T14:01:45Z</time>
      </trkpt>
      <trkpt lat="44.51935" lon="1.25064">
        <ele>206.82</ele>
        <time>2024-10-02T14:01:59Z</time>
      </trkpt>
      <trkpt lat="44.51935" lon="1.25064">
        <ele>206.82</ele>
        <time>2024-10-02T14:02:16Z</time>
      </trkpt>
      <trkpt lat="44.51933" lon="1.25062">
        <ele>206.82</ele>
        <time>2024-10-02T14:02:44Z</time>
      </trkpt>
      <trkpt lat="44.51933" lon="1.25062">
        <ele>206.34</ele>
        <time>2024-10-02T14:03:14Z</time>
      </trkpt>
      <trkpt lat="44.51933" lon="1.25066">
        <ele>206.34</ele>
        <time>2024-10-02T14:03:37Z</time>
      </trkpt>
      <trkpt lat="44.51935" lon="1.2507">
        <ele>206.34</ele>
        <time>2024-10-02T14:04:14Z</time>
      </trkpt>
      <trkpt lat="44.51936" lon="1.25069">
        <ele>206.34</ele>
        <time>2024-10-02T14:04:43Z</time>
      </trkpt>
      <trkpt lat="44.51934" lon="1.25067">
        <ele>206.34</ele>
        <time>2024-10-02T14:05:07Z</time>
      </trkpt>
      <trkpt lat="44.51934" lon="1.2507">
        <ele>205.86</ele>
        <time>2024-10-02T14:05:37Z</time>
      </trkpt>
      <trkpt lat="44.51933" lon="1.25069">
        <ele>205.86</ele>
        <time>2024-10-02T14:05:41Z</time>
      </trkpt>
      <trkpt lat="44.51922" lon="1.25066">
        <ele>205.86</ele>
        <time>2024-10-02T14:05:56Z</time>
      </trkpt>
      <trkpt lat="44.51923" lon="1.25066">
        <ele>206.34</ele>
        <time>2024-10-02T14:06:12Z</time>
      </trkpt>
      <trkpt lat="44.51924" lon="1.25066">
        <ele>207.3</ele>
        <time>2024-10-02T14:06:28Z</time>
      </trkpt>
      <trkpt lat="44.51924" lon="1.25067">
        <ele>207.3</ele>
        <time>2024-10-02T14:06:44Z</time>
      </trkpt>
      <trkpt lat="44.51925" lon="1.25068">
        <ele>207.3</ele>
        <time>2024-10-02T14:06:59Z</time>
      </trkpt>
      <trkpt lat="44.51925" lon="1.25066">
        <ele>206.34</ele>
        <time>2024-10-02T14:07:13Z</time>
      </trkpt>
      <trkpt lat="44.51926" lon="1.25064">
        <ele>206.34</ele>
        <time>2024-10-02T14:07:31Z</time>
      </trkpt>
      <trkpt lat="44.51926" lon="1.25067">
        <ele>206.34</ele>
        <time>2024-10-02T14:07:55Z</time>
      </trkpt>
      <trkpt lat="44.51925" lon="1.25069">
        <ele>206.82</ele>
        <time>2024-10-02T14:08:27Z</time>
      </trkpt>
      <trkpt lat="44.51926" lon="1.25068">
        <ele>206.82</ele>
        <time>2024-10-02T14:08:52Z</time>
      </trkpt>
      <trkpt lat="44.51926" lon="1.25068">
        <ele>206.82</ele>
        <time>2024-10-02T14:09:08Z</time>
      </trkpt>
      <trkpt lat="44.51925" lon="1.25067">
        <ele>206.82</ele>
        <time>2024-10-02T14:09:29Z</time>
      </trkpt>
      <trkpt lat="44.51925" lon="1.25067">
        <ele>208.26</ele>
        <time>2024-10-02T14:09:54Z</time>
      </trkpt>
      <trkpt lat="44.51924" lon="1.25066">
        <ele>208.26</ele>
        <time>2024-10-02T14:10:13Z</time>
      </trkpt>
      <trkpt lat="44.51925" lon="1.25065">
        <ele>208.26</ele>
        <time>2024-10-02T14:10:35Z</time>
      </trkpt>
      <trkpt lat="44.51927" lon="1.25064">
        <ele>208.26</ele>
        <time>2024-10-02T14:11:08Z</time>
      </trkpt>
      <trkpt lat="44.51928" lon="1.25062">
        <ele>209.22</ele>
        <time>2024-10-02T14:11:38Z</time>
      </trkpt>
      <trkpt lat="44.51923" lon="1.2506">
        <ele>209.22</ele>
        <time>2024-10-02T14:12:10Z</time>
      </trkpt>
      <trkpt lat="44.51924" lon="1.2506">
        <ele>209.7</ele>
        <time>2024-10-02T14:12:37Z</time>
      </trkpt>
      <trkpt lat="44.51925" lon="1.25058">
        <ele>209.7</ele>
        <time>2024-10-02T14:13:01Z</time>
      </trkpt>
      <trkpt lat="44.51926" lon="1.25057">
        <ele>209.7</ele>
        <time>2024-10-02T14:13:28Z</time>
      </trkpt>
      <trkpt lat="44.51925" lon="1.25058">
        <ele>209.22</ele>
        <time>2024-10-02T14:13:57Z</time>
      </trkpt>
      <trkpt lat="44.51926" lon="1.25057">
        <ele>209.22</ele>
        <time>2024-10-02T14:14:29Z</time>
      </trkpt>
      <trkpt lat="44.51926" lon="1.25059">
        <ele>209.7</ele>
        <time>2024-10-02T14:14:55Z</time>
      </trkpt>
      <trkpt lat="44.51925" lon="1.25059">
        <ele>209.7</ele>
        <time>2024-10-02T14:15:13Z</time>
      </trkpt>
      <trkpt lat="44.51924" lon="1.2506">
        <ele>209.7</ele>
        <time>2024-10-02T14:15:36Z</time>
      </trkpt>
      <trkpt lat="44.51926" lon="1.25064">
        <ele>209.7</ele>
        <time>2024-10-02T14:15:50Z</time>
      </trkpt>
      <trkpt lat="44.51925" lon="1.25064">
        <ele>209.7</ele>
        <time>2024-10-02T14:16:04Z</time>
      </trkpt>
      <trkpt lat="44.51928" lon="1.25068">
        <ele>209.7</ele>
        <time>2024-10-02T14:16:25Z</time>
      </trkpt>
      <trkpt lat="44.51934" lon="1.25068">
        <ele>209.7</ele>
        <time>2024-10-02T14:16:32Z</time>
      </trkpt>
      <trkpt lat="44.5194" lon="1.2507">
        <ele>208.26</ele>
        <time>2024-10-02T14:16:36Z</time>
      </trkpt>
      <trkpt lat="44.51941" lon="1.25073">
        <ele>208.26</ele>
        <time>2024-10-02T14:16:39Z</time>
      </trkpt>
      <trkpt lat="44.51931" lon="1.25088">
        <ele>207.78</ele>
        <time>2024-10-02T14:16:53Z</time>
      </trkpt>
      <trkpt lat="44.51922" lon="1.251">
        <ele>205.86</ele>
        <time>2024-10-02T14:17:08Z</time>
      </trkpt>
      <trkpt lat="44.51915" lon="1.25117">
        <ele>202.49</ele>
        <time>2024-10-02T14:17:23Z</time>
      </trkpt>
      <trkpt lat="44.5191" lon="1.25126">
        <ele>200.57</ele>
        <time>2024-10-02T14:17:33Z</time>
      </trkpt>
      <trkpt lat="44.51904" lon="1.25129">
        <ele>199.13</ele>
        <time>2024-10-02T14:17:41Z</time>
      </trkpt>
      <trkpt lat="44.519" lon="1.2513">
        <ele>198.65</ele>
        <time>2024-10-02T14:17:45Z</time>
      </trkpt>
      <trkpt lat="44.51897" lon="1.25129">
        <ele>197.21</ele>
        <time>2024-10-02T14:17:48Z</time>
      </trkpt>
      <trkpt lat="44.51887" lon="1.25132">
        <ele>195.28</ele>
        <time>2024-10-02T14:18:02Z</time>
      </trkpt>
      <trkpt lat="44.51879" lon="1.2514">
        <ele>193.36</ele>
        <time>2024-10-02T14:18:12Z</time>
      </trkpt>
      <trkpt lat="44.51875" lon="1.25144">
        <ele>192.4</ele>
        <time>2024-10-02T14:18:19Z</time>
      </trkpt>
      <trkpt lat="44.51867" lon="1.25161">
        <ele>189.04</ele>
        <time>2024-10-02T14:18:35Z</time>
      </trkpt>
      <trkpt lat="44.51862" lon="1.25176">
        <ele>187.11</ele>
        <time>2024-10-02T14:18:47Z</time>
      </trkpt>
      <trkpt lat="44.51859" lon="1.25199">
        <ele>183.75</ele>
        <time>2024-10-02T14:19:02Z</time>
      </trkpt>
      <trkpt lat="44.51857" lon="1.25204">
        <ele>183.27</ele>
        <time>2024-10-02T14:19:08Z</time>
      </trkpt>
      <trkpt lat="44.5186" lon="1.25206">
        <ele>183.27</ele>
        <time>2024-10-02T14:19:21Z</time>
      </trkpt>
      <trkpt lat="44.51858" lon="1.25204">
        <ele>183.27</ele>
        <time>2024-10-02T14:19:24Z</time>
      </trkpt>
      <trkpt lat="44.5184" lon="1.25199">
        <ele>181.35</ele>
        <time>2024-10-02T14:19:41Z</time>
      </trkpt>
      <trkpt lat="44.51828" lon="1.25193">
        <ele>180.38</ele>
        <time>2024-10-02T14:19:56Z</time>
      </trkpt>
      <trkpt lat="44.51822" lon="1.25192">
        <ele>179.9</ele>
        <time>2024-10-02T14:20:14Z</time>
      </trkpt>
      <trkpt lat="44.51821" lon="1.25194">
        <ele>179.9</ele>
        <time>2024-10-02T14:20:45Z</time>
      </trkpt>
      <trkpt lat="44.51821" lon="1.25188">
        <ele>181.35</ele>
        <time>2024-10-02T14:21:20Z</time>
      </trkpt>
      <trkpt lat="44.51821" lon="1.25187">
        <ele>181.35</ele>
        <time>2024-10-02T14:21:21Z</time>
      </trkpt>
      <trkpt lat="44.51807" lon="1.25182">
        <ele>181.35</ele>
        <time>2024-10-02T14:21:37Z</time>
      </trkpt>
      <trkpt lat="44.51799" lon="1.2518">
        <ele>181.35</ele>
        <time>2024-10-02T14:21:54Z</time>
      </trkpt>
      <trkpt lat="44.51797" lon="1.25179">
        <ele>181.35</ele>
        <time>2024-10-02T14:21:57Z</time>
      </trkpt>
      <trkpt lat="44.51783" lon="1.25168">
        <ele>181.35</ele>
        <time>2024-10-02T14:22:12Z</time>
      </trkpt>
      <trkpt lat="44.51767" lon="1.25166">
        <ele>180.38</ele>
        <time>2024-10-02T14:22:25Z</time>
      </trkpt>
      <trkpt lat="44.51747" lon="1.25163">
        <ele>177.98</ele>
        <time>2024-10-02T14:22:41Z</time>
      </trkpt>
      <trkpt lat="44.51731" lon="1.25156">
        <ele>177.02</ele>
        <time>2024-10-02T14:22:55Z</time>
      </trkpt>
      <trkpt lat="44.51724" lon="1.25152">
        <ele>175.58</ele>
        <time>2024-10-02T14:23:00Z</time>
      </trkpt>
      <trkpt lat="44.51718" lon="1.2515">
        <ele>173.17</ele>
        <time>2024-10-02T14:23:06Z</time>
      </trkpt>
      <trkpt lat="44.51715" lon="1.2515">
        <ele>173.17</ele>
        <time>2024-10-02T14:23:09Z</time>
      </trkpt>
      <trkpt lat="44.517" lon="1.25164">
        <ele>173.17</ele>
        <time>2024-10-02T14:23:23Z</time>
      </trkpt>
      <trkpt lat="44.51698" lon="1.25166">
        <ele>173.17</ele>
        <time>2024-10-02T14:23:25Z</time>
      </trkpt>
      <trkpt lat="44.51679" lon="1.2518">
        <ele>171.25</ele>
        <time>2024-10-02T14:23:41Z</time>
      </trkpt>
      <trkpt lat="44.51666" lon="1.25185">
        <ele>169.33</ele>
        <time>2024-10-02T14:23:53Z</time>
      </trkpt>
      <trkpt lat="44.51648" lon="1.25188">
        <ele>167.89</ele>
        <time>2024-10-02T14:24:06Z</time>
      </trkpt>
      <trkpt lat="44.51645" lon="1.2519">
        <ele>167.41</ele>
        <time>2024-10-02T14:24:09Z</time>
      </trkpt>
      <trkpt lat="44.51632" lon="1.252">
        <ele>164.52</ele>
        <time>2024-10-02T14:24:24Z</time>
      </trkpt>
      <trkpt lat="44.51625" lon="1.25202">
        <ele>163.08</ele>
        <time>2024-10-02T14:24:32Z</time>
      </trkpt>
      <trkpt lat="44.51612" lon="1.25206">
        <ele>159.72</ele>
        <time>2024-10-02T14:24:45Z</time>
      </trkpt>
      <trkpt lat="44.51597" lon="1.25214">
        <ele>156.35</ele>
        <time>2024-10-02T14:25:01Z</time>
      </trkpt>
      <trkpt lat="44.51581" lon="1.25215">
        <ele>152.99</ele>
        <time>2024-10-02T14:25:17Z</time>
      </trkpt>
      <trkpt lat="44.51568" lon="1.2521">
        <ele>151.06</ele>
        <time>2024-10-02T14:25:30Z</time>
      </trkpt>
      <trkpt lat="44.51557" lon="1.25217">
        <ele>150.1</ele>
        <time>2024-10-02T14:25:41Z</time>
      </trkpt>
      <trkpt lat="44.51543" lon="1.2522">
        <ele>148.18</ele>
        <time>2024-10-02T14:25:57Z</time>
      </trkpt>
      <trkpt lat="44.51541" lon="1.25222">
        <ele>148.18</ele>
        <time>2024-10-02T14:26:00Z</time>
      </trkpt>
      <trkpt lat="44.51526" lon="1.25221">
        <ele>145.3</ele>
        <time>2024-10-02T14:26:13Z</time>
      </trkpt>
      <trkpt lat="44.51524" lon="1.2522">
        <ele>145.3</ele>
        <time>2024-10-02T14:26:14Z</time>
      </trkpt>
      <trkpt lat="44.5151" lon="1.25213">
        <ele>142.89</ele>
        <time>2024-10-02T14:26:27Z</time>
      </trkpt>
      <trkpt lat="44.51509" lon="1.25213">
        <ele>142.89</ele>
        <time>2024-10-02T14:26:29Z</time>
      </trkpt>
      <trkpt lat="44.51499" lon="1.25215">
        <ele>140.01</ele>
        <time>2024-10-02T14:26:40Z</time>
      </trkpt>
      <trkpt lat="44.51498" lon="1.25216">
        <ele>141.45</ele>
        <time>2024-10-02T14:26:43Z</time>
      </trkpt>
      <trkpt lat="44.51494" lon="1.25216">
        <ele>140.01</ele>
        <time>2024-10-02T14:26:52Z</time>
      </trkpt>
      <trkpt lat="44.51478" lon="1.2522">
        <ele>137.13</ele>
        <time>2024-10-02T14:27:06Z</time>
      </trkpt>
      <trkpt lat="44.51466" lon="1.25224">
        <ele>135.68</ele>
        <time>2024-10-02T14:27:17Z</time>
      </trkpt>
      <trkpt lat="44.5145" lon="1.25224">
        <ele>134.24</ele>
        <time>2024-10-02T14:27:30Z</time>
      </trkpt>
      <trkpt lat="44.51436" lon="1.25221">
        <ele>133.28</ele>
        <time>2024-10-02T14:27:44Z</time>
      </trkpt>
      <trkpt lat="44.51416" lon="1.25225">
        <ele>131.84</ele>
        <time>2024-10-02T14:28:00Z</time>
      </trkpt>
      <trkpt lat="44.51401" lon="1.25226">
        <ele>130.4</ele>
        <time>2024-10-02T14:28:12Z</time>
      </trkpt>
      <trkpt lat="44.51381" lon="1.25225">
        <ele>128.47</ele>
        <time>2024-10-02T14:28:28Z</time>
      </trkpt>
      <trkpt lat="44.51356" lon="1.25227">
        <ele>127.03</ele>
        <time>2024-10-02T14:28:44Z</time>
      </trkpt>
      <trkpt lat="44.51337" lon="1.25237">
        <ele>126.07</ele>
        <time>2024-10-02T14:28:59Z</time>
      </trkpt>
      <trkpt lat="44.51324" lon="1.25242">
        <ele>124.15</ele>
        <time>2024-10-02T14:29:13Z</time>
      </trkpt>
      <trkpt lat="44.51305" lon="1.25246">
        <ele>121.74</ele>
        <time>2024-10-02T14:29:30Z</time>
      </trkpt>
      <trkpt lat="44.51291" lon="1.25249">
        <ele>120.78</ele>
        <time>2024-10-02T14:29:43Z</time>
      </trkpt>
      <trkpt lat="44.51281" lon="1.25251">
        <ele>120.3</ele>
        <time>2024-10-02T14:29:52Z</time>
      </trkpt>
      <trkpt lat="44.51273" lon="1.2528">
        <ele>120.3</ele>
        <time>2024-10-02T14:30:10Z</time>
      </trkpt>
      <trkpt lat="44.5127" lon="1.2531">
        <ele>120.3</ele>
        <time>2024-10-02T14:30:26Z</time>
      </trkpt>
      <trkpt lat="44.51273" lon="1.2534">
        <ele>120.3</ele>
        <time>2024-10-02T14:30:43Z</time>
      </trkpt>
      <trkpt lat="44.5128" lon="1.25378">
        <ele>121.26</ele>
        <time>2024-10-02T14:31:04Z</time>
      </trkpt>
      <trkpt lat="44.51288" lon="1.25401">
        <ele>121.26</ele>
        <time>2024-10-02T14:31:18Z</time>
      </trkpt>
      <trkpt lat="44.51289" lon="1.25421">
        <ele>121.74</ele>
        <time>2024-10-02T14:31:30Z</time>
      </trkpt>
      <trkpt lat="44.51298" lon="1.25448">
        <ele>122.71</ele>
        <time>2024-10-02T14:31:48Z</time>
      </trkpt>
      <trkpt lat="44.51304" lon="1.25475">
        <ele>123.67</ele>
        <time>2024-10-02T14:32:04Z</time>
      </trkpt>
      <trkpt lat="44.51312" lon="1.255">
        <ele>124.63</ele>
        <time>2024-10-02T14:32:20Z</time>
      </trkpt>
      <trkpt lat="44.51325" lon="1.25527">
        <ele>125.11</ele>
        <time>2024-10-02T14:32:38Z</time>
      </trkpt>
      <trkpt lat="44.51335" lon="1.25545">
        <ele>125.59</ele>
        <time>2024-10-02T14:32:51Z</time>
      </trkpt>
      <trkpt lat="44.51347" lon="1.25571">
        <ele>126.55</ele>
        <time>2024-10-02T14:33:07Z</time>
      </trkpt>
      <trkpt lat="44.51359" lon="1.25596">
        <ele>127.03</ele>
        <time>2024-10-02T14:33:23Z</time>
      </trkpt>
      <trkpt lat="44.51366" lon="1.25629">
        <ele>127.51</ele>
        <time>2024-10-02T14:33:43Z</time>
      </trkpt>
      <trkpt lat="44.51369" lon="1.25643">
        <ele>127.99</ele>
        <time>2024-10-02T14:33:51Z</time>
      </trkpt>
      <trkpt lat="44.51372" lon="1.25656">
        <ele>127.99</ele>
        <time>2024-10-02T14:33:59Z</time>
      </trkpt>
      <trkpt lat="44.51375" lon="1.25687">
        <ele>128.47</ele>
        <time>2024-10-02T14:34:17Z</time>
      </trkpt>
      <trkpt lat="44.51373" lon="1.25714">
        <ele>128.47</ele>
        <time>2024-10-02T14:34:32Z</time>
      </trkpt>
      <trkpt lat="44.51372" lon="1.25739">
        <ele>128.47</ele>
        <time>2024-10-02T14:34:46Z</time>
      </trkpt>
      <trkpt lat="44.51366" lon="1.25768">
        <ele>126.55</ele>
        <time>2024-10-02T14:35:05Z</time>
      </trkpt>
      <trkpt lat="44.5136" lon="1.25792">
        <ele>125.59</ele>
        <time>2024-10-02T14:35:20Z</time>
      </trkpt>
      <trkpt lat="44.5135" lon="1.25816">
        <ele>124.15</ele>
        <time>2024-10-02T14:35:38Z</time>
      </trkpt>
      <trkpt lat="44.51348" lon="1.25817">
        <ele>123.67</ele>
        <time>2024-10-02T14:35:51Z</time>
      </trkpt>
      <trkpt lat="44.51338" lon="1.25845">
        <ele>123.67</ele>
        <time>2024-10-02T14:36:06Z</time>
      </trkpt>
      <trkpt lat="44.51329" lon="1.25878">
        <ele>122.71</ele>
        <time>2024-10-02T14:36:26Z</time>
      </trkpt>
      <trkpt lat="44.51325" lon="1.2591">
        <ele>122.22</ele>
        <time>2024-10-02T14:36:44Z</time>
      </trkpt>
      <trkpt lat="44.51323" lon="1.25944">
        <ele>121.74</ele>
        <time>2024-10-02T14:37:02Z</time>
      </trkpt>
      <trkpt lat="44.51324" lon="1.2597">
        <ele>121.74</ele>
        <time>2024-10-02T14:37:17Z</time>
      </trkpt>
      <trkpt lat="44.51323" lon="1.25994">
        <ele>121.74</ele>
        <time>2024-10-02T14:37:32Z</time>
      </trkpt>
      <trkpt lat="44.51325" lon="1.26027">
        <ele>121.26</ele>
        <time>2024-10-02T14:37:50Z</time>
      </trkpt>
      <trkpt lat="44.51324" lon="1.26052">
        <ele>119.82</ele>
        <time>2024-10-02T14:38:04Z</time>
      </trkpt>
      <trkpt lat="44.51305" lon="1.2606">
        <ele>117.9</ele>
        <time>2024-10-02T14:38:21Z</time>
      </trkpt>
      <trkpt lat="44.51285" lon="1.26079">
        <ele>117.9</ele>
        <time>2024-10-02T14:38:39Z</time>
      </trkpt>
      <trkpt lat="44.51271" lon="1.26101">
        <ele>117.9</ele>
        <time>2024-10-02T14:38:57Z</time>
      </trkpt>
      <trkpt lat="44.51255" lon="1.26114">
        <ele>117.9</ele>
        <time>2024-10-02T14:39:14Z</time>
      </trkpt>
      <trkpt lat="44.51254" lon="1.26115">
        <ele>117.9</ele>
        <time>2024-10-02T14:39:15Z</time>
      </trkpt>
      <trkpt lat="44.51252" lon="1.26142">
        <ele>117.9</ele>
        <time>2024-10-02T14:39:32Z</time>
      </trkpt>
      <trkpt lat="44.51247" lon="1.26179">
        <ele>117.9</ele>
        <time>2024-10-02T14:39:52Z</time>
      </trkpt>
      <trkpt lat="44.51242" lon="1.26208">
        <ele>117.9</ele>
        <time>2024-10-02T14:40:09Z</time>
      </trkpt>
      <trkpt lat="44.51238" lon="1.26234">
        <ele>119.34</ele>
        <time>2024-10-02T14:40:24Z</time>
      </trkpt>
      <trkpt lat="44.51227" lon="1.26263">
        <ele>119.34</ele>
        <time>2024-10-02T14:40:43Z</time>
      </trkpt>
      <trkpt lat="44.51216" lon="1.26282">
        <ele>119.34</ele>
        <time>2024-10-02T14:40:59Z</time>
      </trkpt>
      <trkpt lat="44.51216" lon="1.2629">
        <ele>120.3</ele>
        <time>2024-10-02T14:41:09Z</time>
      </trkpt>
      <trkpt lat="44.51219" lon="1.26296">
        <ele>120.3</ele>
        <time>2024-10-02T14:41:14Z</time>
      </trkpt>
      <trkpt lat="44.5122" lon="1.26315">
        <ele>120.3</ele>
        <time>2024-10-02T14:41:25Z</time>
      </trkpt>
      <trkpt lat="44.51225" lon="1.26344">
        <ele>120.3</ele>
        <time>2024-10-02T14:41:41Z</time>
      </trkpt>
      <trkpt lat="44.5123" lon="1.26362">
        <ele>120.3</ele>
        <time>2024-10-02T14:41:56Z</time>
      </trkpt>
      <trkpt lat="44.51236" lon="1.26381">
        <ele>120.3</ele>
        <time>2024-10-02T14:42:10Z</time>
      </trkpt>
      <trkpt lat="44.51239" lon="1.26406">
        <ele>120.78</ele>
        <time>2024-10-02T14:42:24Z</time>
      </trkpt>
      <trkpt lat="44.51249" lon="1.26432">
        <ele>120.78</ele>
        <time>2024-10-02T14:42:40Z</time>
      </trkpt>
      <trkpt lat="44.51256" lon="1.26433">
        <ele>119.34</ele>
        <time>2024-10-02T14:42:47Z</time>
      </trkpt>
      <trkpt lat="44.51265" lon="1.26432">
        <ele>118.38</ele>
        <time>2024-10-02T14:42:55Z</time>
      </trkpt>
      <trkpt lat="44.5128" lon="1.26439">
        <ele>116.94</ele>
        <time>2024-10-02T14:43:10Z</time>
      </trkpt>
      <trkpt lat="44.51281" lon="1.2644">
        <ele>117.9</ele>
        <time>2024-10-02T14:43:13Z</time>
      </trkpt>
      <trkpt lat="44.51286" lon="1.2644">
        <ele>117.42</ele>
        <time>2024-10-02T14:43:27Z</time>
      </trkpt>
      <trkpt lat="44.51287" lon="1.26441">
        <ele>118.38</ele>
        <time>2024-10-02T14:43:29Z</time>
      </trkpt>
      <trkpt lat="44.51286" lon="1.26444">
        <ele>118.38</ele>
        <time>2024-10-02T14:44:00Z</time>
      </trkpt>
      <trkpt lat="44.51288" lon="1.26443">
        <ele>118.38</ele>
        <time>2024-10-02T14:44:21Z</time>
      </trkpt>
    </trkseg>
  </trk>
</gpx>